<?xml version="1.0" encoding="UTF-8"?>
<gpx xmlns="http://www.topografix.com/GPX/1/1" xmlns:gpsies="https://www.gpsies.com/GPX/1/0" creator="AllTrails https://www.alltrails.com/ - SPICELLO" version="1.1" xmlns:xsi="http://www.w3.org/2001/XMLSchema-instance" xsi:schemaLocation="http://www.topografix.com/GPX/1/1 http://www.topografix.com/GPX/1/1/gpx.xsd https://www.gpsies.com/GPX/1/0 https://www.gpsies.com/gpsies.xsd">
  <metadata>
    <name>SPICELLO</name>
    <desc>Senigallia - Cesano - San Costanzo - Solfanuccio - Spicello - Monte Cucco - Ponte Rio - Senigallia</desc>
    <author>
      <name>puccifrancesco</name>
      <link href="https://www.gpsies.com/mapUser.do?username=puccifrancesco">
        <text>puccifrancesco on AllTrails</text>
        <type>GPSiesUserOnWeb</type>
      </link>
    </author>
    <link href="https://www.gpsies.com/map.do?fileId=btdlvrqzizpntolc">
      <text>SPICELLO on AllTrails</text>
      <type>trackOnWeb</type>
    </link>
    <time>2019-10-05T13:03:50Z</time>
    <extensions>
      <gpsies:property>round trip</gpsies:property>
      <gpsies:trackLengthMeter>48966.70839616046</gpsies:trackLengthMeter>
      <gpsies:totalAscentMeter>575.0</gpsies:totalAscentMeter>
      <gpsies:totalDescentMeter>573.0</gpsies:totalDescentMeter>
      <gpsies:minHeightMeter>-2.0</gpsies:minHeightMeter>
      <gpsies:maxHeightMeter>252.0</gpsies:maxHeightMeter>
    </extensions>
  </metadata>
  <trk>
    <name>SPICELLO on AllTrails</name>
    <link href="https://www.gpsies.com/map.do?fileId=btdlvrqzizpntolc">
      <type>trackOnWeb</type>
    </link>
    <link href="https://www.gpsies.com/charts/bt/map/btdlvrqzizpntolc_map.png">
      <type>elevationChartUrlMap</type>
    </link>
    <link href="https://www.gpsies.com/charts/bt/mapThumb/btdlvrqzizpntolc_mapThumb.png">
      <type>elevationChartUrlMapThumb</type>
    </link>
    <link href="https://www.gpsies.com/charts/bt/tab/btdlvrqzizpntolc_tab.png">
      <type>elevationChartUrlTab</type>
    </link>
    <trkseg>
      <trkpt lat="43.72024930" lon="13.21912760">
        <ele>4.0000000</ele>
        <time>2010-01-01T00:00:00Z</time>
      </trkpt>
      <trkpt lat="43.72019000" lon="13.21907000">
        <ele>4.0000000</ele>
        <time>2010-01-01T00:00:02Z</time>
      </trkpt>
      <trkpt lat="43.72034000" lon="13.21876000">
        <ele>2.0000000</ele>
        <time>2010-01-01T00:00:13Z</time>
      </trkpt>
      <trkpt lat="43.72044000" lon="13.21860000">
        <ele>2.0000000</ele>
        <time>2010-01-01T00:00:19Z</time>
      </trkpt>
      <trkpt lat="43.72056000" lon="13.21853000">
        <ele>3.0000000</ele>
        <time>2010-01-01T00:00:25Z</time>
      </trkpt>
      <trkpt lat="43.72066000" lon="13.21850000">
        <ele>4.0000000</ele>
        <time>2010-01-01T00:00:29Z</time>
      </trkpt>
      <trkpt lat="43.72071000" lon="13.21842000">
        <ele>4.0000000</ele>
        <time>2010-01-01T00:00:32Z</time>
      </trkpt>
      <trkpt lat="43.72104000" lon="13.21777000">
        <ele>3.0000000</ele>
        <time>2010-01-01T00:00:55Z</time>
      </trkpt>
      <trkpt lat="43.72209000" lon="13.21555000">
        <ele>2.0000000</ele>
        <time>2010-01-01T00:02:11Z</time>
      </trkpt>
      <trkpt lat="43.72482000" lon="13.20989000">
        <ele>2.0000000</ele>
        <time>2010-01-01T00:05:28Z</time>
      </trkpt>
      <trkpt lat="43.72547000" lon="13.20874000">
        <ele>1.0000000</ele>
        <time>2010-01-01T00:06:11Z</time>
      </trkpt>
      <trkpt lat="43.72719000" lon="13.20591000">
        <ele>1.0000000</ele>
        <time>2010-01-01T00:07:57Z</time>
      </trkpt>
      <trkpt lat="43.73114000" lon="13.19967000">
        <ele>2.0000000</ele>
        <time>2010-01-01T00:11:57Z</time>
      </trkpt>
      <trkpt lat="43.73173000" lon="13.19881000">
        <ele>1.0000000</ele>
        <time>2010-01-01T00:12:32Z</time>
      </trkpt>
      <trkpt lat="43.73453000" lon="13.19470000">
        <ele>4.0000000</ele>
        <time>2010-01-01T00:15:15Z</time>
      </trkpt>
      <trkpt lat="43.73556000" lon="13.19314000">
        <ele>2.0000000</ele>
        <time>2010-01-01T00:16:16Z</time>
      </trkpt>
      <trkpt lat="43.73730000" lon="13.19064000">
        <ele>3.0000000</ele>
        <time>2010-01-01T00:17:57Z</time>
      </trkpt>
      <trkpt lat="43.73837000" lon="13.18916000">
        <ele>3.0000000</ele>
        <time>2010-01-01T00:18:57Z</time>
      </trkpt>
      <trkpt lat="43.73968000" lon="13.18728000">
        <ele>-1.000000</ele>
        <time>2010-01-01T00:20:13Z</time>
      </trkpt>
      <trkpt lat="43.74063000" lon="13.18598000">
        <ele>0.0000000</ele>
        <time>2010-01-01T00:21:06Z</time>
      </trkpt>
      <trkpt lat="43.74077000" lon="13.18580000">
        <ele>0.0000000</ele>
        <time>2010-01-01T00:21:14Z</time>
      </trkpt>
      <trkpt lat="43.74159000" lon="13.18483000">
        <ele>-2.000000</ele>
        <time>2010-01-01T00:21:57Z</time>
      </trkpt>
      <trkpt lat="43.74179000" lon="13.18457000">
        <ele>-1.000000</ele>
        <time>2010-01-01T00:22:08Z</time>
      </trkpt>
      <trkpt lat="43.74189000" lon="13.18444000">
        <ele>-1.000000</ele>
        <time>2010-01-01T00:22:14Z</time>
      </trkpt>
      <trkpt lat="43.74205000" lon="13.18418000">
        <ele>0.0000000</ele>
        <time>2010-01-01T00:22:23Z</time>
      </trkpt>
      <trkpt lat="43.74228000" lon="13.18337000">
        <ele>3.0000000</ele>
        <time>2010-01-01T00:22:49Z</time>
      </trkpt>
      <trkpt lat="43.74238000" lon="13.18319000">
        <ele>3.0000000</ele>
        <time>2010-01-01T00:22:55Z</time>
      </trkpt>
      <trkpt lat="43.74362000" lon="13.18153000">
        <ele>3.0000000</ele>
        <time>2010-01-01T00:24:04Z</time>
      </trkpt>
      <trkpt lat="43.74366000" lon="13.18143000">
        <ele>3.0000000</ele>
        <time>2010-01-01T00:24:08Z</time>
      </trkpt>
      <trkpt lat="43.74390000" lon="13.18152000">
        <ele>2.0000000</ele>
        <time>2010-01-01T00:24:17Z</time>
      </trkpt>
      <trkpt lat="43.74401000" lon="13.18145000">
        <ele>1.0000000</ele>
        <time>2010-01-01T00:24:22Z</time>
      </trkpt>
      <trkpt lat="43.74411000" lon="13.18131000">
        <ele>0.0000000</ele>
        <time>2010-01-01T00:24:28Z</time>
      </trkpt>
      <trkpt lat="43.74462000" lon="13.18070000">
        <ele>0.0000000</ele>
        <time>2010-01-01T00:24:55Z</time>
      </trkpt>
      <trkpt lat="43.74474000" lon="13.18061000">
        <ele>0.0000000</ele>
        <time>2010-01-01T00:25:00Z</time>
      </trkpt>
      <trkpt lat="43.74578000" lon="13.17921000">
        <ele>1.0000000</ele>
        <time>2010-01-01T00:25:59Z</time>
      </trkpt>
      <trkpt lat="43.74532000" lon="13.17851000">
        <ele>4.0000000</ele>
        <time>2010-01-01T00:26:26Z</time>
      </trkpt>
      <trkpt lat="43.74549000" lon="13.17814000">
        <ele>4.0000000</ele>
        <time>2010-01-01T00:26:39Z</time>
      </trkpt>
      <trkpt lat="43.74576000" lon="13.17781000">
        <ele>5.0000000</ele>
        <time>2010-01-01T00:26:53Z</time>
      </trkpt>
      <trkpt lat="43.74626000" lon="13.17708000">
        <ele>0.0000000</ele>
        <time>2010-01-01T00:27:22Z</time>
      </trkpt>
      <trkpt lat="43.74630000" lon="13.17695000">
        <ele>-1.000000</ele>
        <time>2010-01-01T00:27:26Z</time>
      </trkpt>
      <trkpt lat="43.74627000" lon="13.17684000">
        <ele>0.0000000</ele>
        <time>2010-01-01T00:27:30Z</time>
      </trkpt>
      <trkpt lat="43.74616000" lon="13.17670000">
        <ele>1.0000000</ele>
        <time>2010-01-01T00:27:36Z</time>
      </trkpt>
      <trkpt lat="43.74613000" lon="13.17659000">
        <ele>2.0000000</ele>
        <time>2010-01-01T00:27:39Z</time>
      </trkpt>
      <trkpt lat="43.74616000" lon="13.17648000">
        <ele>2.0000000</ele>
        <time>2010-01-01T00:27:42Z</time>
      </trkpt>
      <trkpt lat="43.74753000" lon="13.17446000">
        <ele>2.0000000</ele>
        <time>2010-01-01T00:29:02Z</time>
      </trkpt>
      <trkpt lat="43.74778000" lon="13.17434000">
        <ele>-1.000000</ele>
        <time>2010-01-01T00:29:13Z</time>
      </trkpt>
      <trkpt lat="43.74786000" lon="13.17419000">
        <ele>-1.000000</ele>
        <time>2010-01-01T00:29:18Z</time>
      </trkpt>
      <trkpt lat="43.74789000" lon="13.17402000">
        <ele>0.0000000</ele>
        <time>2010-01-01T00:29:24Z</time>
      </trkpt>
      <trkpt lat="43.74783000" lon="13.17381000">
        <ele>-1.000000</ele>
        <time>2010-01-01T00:29:30Z</time>
      </trkpt>
      <trkpt lat="43.74765000" lon="13.17361000">
        <ele>-1.000000</ele>
        <time>2010-01-01T00:29:39Z</time>
      </trkpt>
      <trkpt lat="43.74756000" lon="13.17355000">
        <ele>0.0000000</ele>
        <time>2010-01-01T00:29:43Z</time>
      </trkpt>
      <trkpt lat="43.74748000" lon="13.17354000">
        <ele>0.0000000</ele>
        <time>2010-01-01T00:29:46Z</time>
      </trkpt>
      <trkpt lat="43.74736000" lon="13.17357000">
        <ele>0.0000000</ele>
        <time>2010-01-01T00:29:51Z</time>
      </trkpt>
      <trkpt lat="43.74726000" lon="13.17368000">
        <ele>0.0000000</ele>
        <time>2010-01-01T00:29:56Z</time>
      </trkpt>
      <trkpt lat="43.74664000" lon="13.17455000">
        <ele>1.0000000</ele>
        <time>2010-01-01T00:30:32Z</time>
      </trkpt>
      <trkpt lat="43.74655000" lon="13.17462000">
        <ele>1.0000000</ele>
        <time>2010-01-01T00:30:36Z</time>
      </trkpt>
      <trkpt lat="43.74642000" lon="13.17465000">
        <ele>1.0000000</ele>
        <time>2010-01-01T00:30:41Z</time>
      </trkpt>
      <trkpt lat="43.74630000" lon="13.17460000">
        <ele>0.0000000</ele>
        <time>2010-01-01T00:30:46Z</time>
      </trkpt>
      <trkpt lat="43.74623000" lon="13.17452000">
        <ele>0.0000000</ele>
        <time>2010-01-01T00:30:50Z</time>
      </trkpt>
      <trkpt lat="43.74616000" lon="13.17426000">
        <ele>1.0000000</ele>
        <time>2010-01-01T00:30:58Z</time>
      </trkpt>
      <trkpt lat="43.74613000" lon="13.17399000">
        <ele>2.0000000</ele>
        <time>2010-01-01T00:31:06Z</time>
      </trkpt>
      <trkpt lat="43.74634000" lon="13.17332000">
        <ele>3.0000000</ele>
        <time>2010-01-01T00:31:27Z</time>
      </trkpt>
      <trkpt lat="43.74675000" lon="13.17260000">
        <ele>4.0000000</ele>
        <time>2010-01-01T00:31:53Z</time>
      </trkpt>
      <trkpt lat="43.74715000" lon="13.17186000">
        <ele>3.0000000</ele>
        <time>2010-01-01T00:32:20Z</time>
      </trkpt>
      <trkpt lat="43.74794000" lon="13.17055000">
        <ele>4.0000000</ele>
        <time>2010-01-01T00:33:10Z</time>
      </trkpt>
      <trkpt lat="43.74917000" lon="13.16863000">
        <ele>8.0000000</ele>
        <time>2010-01-01T00:34:24Z</time>
      </trkpt>
      <trkpt lat="43.74986000" lon="13.16760000">
        <ele>4.0000000</ele>
        <time>2010-01-01T00:35:04Z</time>
      </trkpt>
      <trkpt lat="43.74985000" lon="13.16750000">
        <ele>5.0000000</ele>
        <time>2010-01-01T00:35:07Z</time>
      </trkpt>
      <trkpt lat="43.74982000" lon="13.16739000">
        <ele>6.0000000</ele>
        <time>2010-01-01T00:35:11Z</time>
      </trkpt>
      <trkpt lat="43.74976000" lon="13.16729000">
        <ele>7.0000000</ele>
        <time>2010-01-01T00:35:14Z</time>
      </trkpt>
      <trkpt lat="43.74955000" lon="13.16710000">
        <ele>7.0000000</ele>
        <time>2010-01-01T00:35:24Z</time>
      </trkpt>
      <trkpt lat="43.74949000" lon="13.16697000">
        <ele>7.0000000</ele>
        <time>2010-01-01T00:35:29Z</time>
      </trkpt>
      <trkpt lat="43.74936000" lon="13.16640000">
        <ele>5.0000000</ele>
        <time>2010-01-01T00:35:46Z</time>
      </trkpt>
      <trkpt lat="43.74932000" lon="13.16598000">
        <ele>3.0000000</ele>
        <time>2010-01-01T00:35:58Z</time>
      </trkpt>
      <trkpt lat="43.74932000" lon="13.16597000">
        <ele>3.0000000</ele>
        <time>2010-01-01T00:35:59Z</time>
      </trkpt>
      <trkpt lat="43.74927000" lon="13.16550000">
        <ele>6.0000000</ele>
        <time>2010-01-01T00:36:12Z</time>
      </trkpt>
      <trkpt lat="43.74921000" lon="13.16514000">
        <ele>8.0000000</ele>
        <time>2010-01-01T00:36:23Z</time>
      </trkpt>
      <trkpt lat="43.74891000" lon="13.16419000">
        <ele>9.0000000</ele>
        <time>2010-01-01T00:36:53Z</time>
      </trkpt>
      <trkpt lat="43.74875000" lon="13.16350000">
        <ele>6.0000000</ele>
        <time>2010-01-01T00:37:14Z</time>
      </trkpt>
      <trkpt lat="43.74854000" lon="13.16223000">
        <ele>11.000000</ele>
        <time>2010-01-01T00:37:52Z</time>
      </trkpt>
      <trkpt lat="43.75014000" lon="13.15990000">
        <ele>12.000000</ele>
        <time>2010-01-01T00:39:25Z</time>
      </trkpt>
      <trkpt lat="43.75097000" lon="13.15861000">
        <ele>9.0000000</ele>
        <time>2010-01-01T00:40:15Z</time>
      </trkpt>
      <trkpt lat="43.75217000" lon="13.15688000">
        <ele>12.000000</ele>
        <time>2010-01-01T00:41:24Z</time>
      </trkpt>
      <trkpt lat="43.75331000" lon="13.15528000">
        <ele>14.000000</ele>
        <time>2010-01-01T00:42:29Z</time>
      </trkpt>
      <trkpt lat="43.75381000" lon="13.15459000">
        <ele>14.000000</ele>
        <time>2010-01-01T00:42:57Z</time>
      </trkpt>
      <trkpt lat="43.75376000" lon="13.15453000">
        <ele>14.000000</ele>
        <time>2010-01-01T00:43:00Z</time>
      </trkpt>
      <trkpt lat="43.75488000" lon="13.15272000">
        <ele>12.000000</ele>
        <time>2010-01-01T00:44:09Z</time>
      </trkpt>
      <trkpt lat="43.75430000" lon="13.15055000">
        <ele>10.000000</ele>
        <time>2010-01-01T00:45:16Z</time>
      </trkpt>
      <trkpt lat="43.75405000" lon="13.15012000">
        <ele>11.000000</ele>
        <time>2010-01-01T00:45:32Z</time>
      </trkpt>
      <trkpt lat="43.75358000" lon="13.14965000">
        <ele>10.000000</ele>
        <time>2010-01-01T00:45:55Z</time>
      </trkpt>
      <trkpt lat="43.75294000" lon="13.14908000">
        <ele>13.000000</ele>
        <time>2010-01-01T00:46:25Z</time>
      </trkpt>
      <trkpt lat="43.75120000" lon="13.14761000">
        <ele>15.000000</ele>
        <time>2010-01-01T00:47:47Z</time>
      </trkpt>
      <trkpt lat="43.75306000" lon="13.14427000">
        <ele>13.000000</ele>
        <time>2010-01-01T00:49:49Z</time>
      </trkpt>
      <trkpt lat="43.75381000" lon="13.14304000">
        <ele>13.000000</ele>
        <time>2010-01-01T00:50:35Z</time>
      </trkpt>
      <trkpt lat="43.75417000" lon="13.14230000">
        <ele>16.000000</ele>
        <time>2010-01-01T00:51:01Z</time>
      </trkpt>
      <trkpt lat="43.75433000" lon="13.14191000">
        <ele>15.000000</ele>
        <time>2010-01-01T00:51:14Z</time>
      </trkpt>
      <trkpt lat="43.75458000" lon="13.14122000">
        <ele>13.000000</ele>
        <time>2010-01-01T00:51:37Z</time>
      </trkpt>
      <trkpt lat="43.75481000" lon="13.14045000">
        <ele>15.000000</ele>
        <time>2010-01-01T00:52:01Z</time>
      </trkpt>
      <trkpt lat="43.75503000" lon="13.13988000">
        <ele>16.000000</ele>
        <time>2010-01-01T00:52:19Z</time>
      </trkpt>
      <trkpt lat="43.75514000" lon="13.13970000">
        <ele>16.000000</ele>
        <time>2010-01-01T00:52:26Z</time>
      </trkpt>
      <trkpt lat="43.75525000" lon="13.13963000">
        <ele>16.000000</ele>
        <time>2010-01-01T00:52:31Z</time>
      </trkpt>
      <trkpt lat="43.75538000" lon="13.13961000">
        <ele>15.000000</ele>
        <time>2010-01-01T00:52:36Z</time>
      </trkpt>
      <trkpt lat="43.75549000" lon="13.13950000">
        <ele>15.000000</ele>
        <time>2010-01-01T00:52:42Z</time>
      </trkpt>
      <trkpt lat="43.75553000" lon="13.13942000">
        <ele>15.000000</ele>
        <time>2010-01-01T00:52:44Z</time>
      </trkpt>
      <trkpt lat="43.75555000" lon="13.13933000">
        <ele>15.000000</ele>
        <time>2010-01-01T00:52:47Z</time>
      </trkpt>
      <trkpt lat="43.75554000" lon="13.13922000">
        <ele>15.000000</ele>
        <time>2010-01-01T00:52:50Z</time>
      </trkpt>
      <trkpt lat="43.75551000" lon="13.13911000">
        <ele>15.000000</ele>
        <time>2010-01-01T00:52:54Z</time>
      </trkpt>
      <trkpt lat="43.75551000" lon="13.13893000">
        <ele>14.000000</ele>
        <time>2010-01-01T00:52:59Z</time>
      </trkpt>
      <trkpt lat="43.75558000" lon="13.13862000">
        <ele>14.000000</ele>
        <time>2010-01-01T00:53:08Z</time>
      </trkpt>
      <trkpt lat="43.75616000" lon="13.13734000">
        <ele>16.000000</ele>
        <time>2010-01-01T00:53:52Z</time>
      </trkpt>
      <trkpt lat="43.75640000" lon="13.13687000">
        <ele>16.000000</ele>
        <time>2010-01-01T00:54:09Z</time>
      </trkpt>
      <trkpt lat="43.75644000" lon="13.13679000">
        <ele>16.000000</ele>
        <time>2010-01-01T00:54:12Z</time>
      </trkpt>
      <trkpt lat="43.75668000" lon="13.13655000">
        <ele>14.000000</ele>
        <time>2010-01-01T00:54:23Z</time>
      </trkpt>
      <trkpt lat="43.75824000" lon="13.13584000">
        <ele>18.000000</ele>
        <time>2010-01-01T00:55:29Z</time>
      </trkpt>
      <trkpt lat="43.75828000" lon="13.13593000">
        <ele>18.000000</ele>
        <time>2010-01-01T00:55:32Z</time>
      </trkpt>
      <trkpt lat="43.75833000" lon="13.13601000">
        <ele>18.000000</ele>
        <time>2010-01-01T00:55:35Z</time>
      </trkpt>
      <trkpt lat="43.75839000" lon="13.13606000">
        <ele>17.000000</ele>
        <time>2010-01-01T00:55:38Z</time>
      </trkpt>
      <trkpt lat="43.75847000" lon="13.13608000">
        <ele>17.000000</ele>
        <time>2010-01-01T00:55:41Z</time>
      </trkpt>
      <trkpt lat="43.75860000" lon="13.13605000">
        <ele>17.000000</ele>
        <time>2010-01-01T00:55:47Z</time>
      </trkpt>
      <trkpt lat="43.75866000" lon="13.13600000">
        <ele>17.000000</ele>
        <time>2010-01-01T00:55:49Z</time>
      </trkpt>
      <trkpt lat="43.75871000" lon="13.13592000">
        <ele>17.000000</ele>
        <time>2010-01-01T00:55:52Z</time>
      </trkpt>
      <trkpt lat="43.75874000" lon="13.13585000">
        <ele>17.000000</ele>
        <time>2010-01-01T00:55:55Z</time>
      </trkpt>
      <trkpt lat="43.75876000" lon="13.13570000">
        <ele>18.000000</ele>
        <time>2010-01-01T00:55:59Z</time>
      </trkpt>
      <trkpt lat="43.75874000" lon="13.13561000">
        <ele>19.000000</ele>
        <time>2010-01-01T00:56:02Z</time>
      </trkpt>
      <trkpt lat="43.75867000" lon="13.13545000">
        <ele>20.000000</ele>
        <time>2010-01-01T00:56:07Z</time>
      </trkpt>
      <trkpt lat="43.75860000" lon="13.13539000">
        <ele>21.000000</ele>
        <time>2010-01-01T00:56:11Z</time>
      </trkpt>
      <trkpt lat="43.75869000" lon="13.13519000">
        <ele>22.000000</ele>
        <time>2010-01-01T00:56:17Z</time>
      </trkpt>
      <trkpt lat="43.75888000" lon="13.13510000">
        <ele>21.000000</ele>
        <time>2010-01-01T00:56:25Z</time>
      </trkpt>
      <trkpt lat="43.75926000" lon="13.13507000">
        <ele>21.000000</ele>
        <time>2010-01-01T00:56:41Z</time>
      </trkpt>
      <trkpt lat="43.75934000" lon="13.13514000">
        <ele>21.000000</ele>
        <time>2010-01-01T00:56:45Z</time>
      </trkpt>
      <trkpt lat="43.75939000" lon="13.13515000">
        <ele>21.000000</ele>
        <time>2010-01-01T00:56:47Z</time>
      </trkpt>
      <trkpt lat="43.75944000" lon="13.13511000">
        <ele>21.000000</ele>
        <time>2010-01-01T00:56:49Z</time>
      </trkpt>
      <trkpt lat="43.75958000" lon="13.13488000">
        <ele>21.000000</ele>
        <time>2010-01-01T00:56:58Z</time>
      </trkpt>
      <trkpt lat="43.75965000" lon="13.13481000">
        <ele>21.000000</ele>
        <time>2010-01-01T00:57:01Z</time>
      </trkpt>
      <trkpt lat="43.75972000" lon="13.13478000">
        <ele>21.000000</ele>
        <time>2010-01-01T00:57:04Z</time>
      </trkpt>
      <trkpt lat="43.76019000" lon="13.13483000">
        <ele>18.000000</ele>
        <time>2010-01-01T00:57:23Z</time>
      </trkpt>
      <trkpt lat="43.76033000" lon="13.13480000">
        <ele>17.000000</ele>
        <time>2010-01-01T00:57:28Z</time>
      </trkpt>
      <trkpt lat="43.76040000" lon="13.13473000">
        <ele>17.000000</ele>
        <time>2010-01-01T00:57:32Z</time>
      </trkpt>
      <trkpt lat="43.76047000" lon="13.13463000">
        <ele>17.000000</ele>
        <time>2010-01-01T00:57:36Z</time>
      </trkpt>
      <trkpt lat="43.76062000" lon="13.13427000">
        <ele>16.000000</ele>
        <time>2010-01-01T00:57:48Z</time>
      </trkpt>
      <trkpt lat="43.76115000" lon="13.13345000">
        <ele>14.000000</ele>
        <time>2010-01-01T00:58:20Z</time>
      </trkpt>
      <trkpt lat="43.76130000" lon="13.13321000">
        <ele>13.000000</ele>
        <time>2010-01-01T00:58:29Z</time>
      </trkpt>
      <trkpt lat="43.76143000" lon="13.13308000">
        <ele>13.000000</ele>
        <time>2010-01-01T00:58:35Z</time>
      </trkpt>
      <trkpt lat="43.76152000" lon="13.13303000">
        <ele>13.000000</ele>
        <time>2010-01-01T00:58:39Z</time>
      </trkpt>
      <trkpt lat="43.76145000" lon="13.13287000">
        <ele>14.000000</ele>
        <time>2010-01-01T00:58:45Z</time>
      </trkpt>
      <trkpt lat="43.76138000" lon="13.13275000">
        <ele>15.000000</ele>
        <time>2010-01-01T00:58:49Z</time>
      </trkpt>
      <trkpt lat="43.76098000" lon="13.13234000">
        <ele>19.000000</ele>
        <time>2010-01-01T00:59:09Z</time>
      </trkpt>
      <trkpt lat="43.76123000" lon="13.13184000">
        <ele>18.000000</ele>
        <time>2010-01-01T00:59:27Z</time>
      </trkpt>
      <trkpt lat="43.76130000" lon="13.13164000">
        <ele>18.000000</ele>
        <time>2010-01-01T00:59:33Z</time>
      </trkpt>
      <trkpt lat="43.76133000" lon="13.13147000">
        <ele>18.000000</ele>
        <time>2010-01-01T00:59:38Z</time>
      </trkpt>
      <trkpt lat="43.76134000" lon="13.13129000">
        <ele>18.000000</ele>
        <time>2010-01-01T00:59:43Z</time>
      </trkpt>
      <trkpt lat="43.76130000" lon="13.13114000">
        <ele>18.000000</ele>
        <time>2010-01-01T00:59:48Z</time>
      </trkpt>
      <trkpt lat="43.76123000" lon="13.13097000">
        <ele>19.000000</ele>
        <time>2010-01-01T00:59:54Z</time>
      </trkpt>
      <trkpt lat="43.76108000" lon="13.13075000">
        <ele>20.000000</ele>
        <time>2010-01-01T01:00:02Z</time>
      </trkpt>
      <trkpt lat="43.76042000" lon="13.12967000">
        <ele>25.000000</ele>
        <time>2010-01-01T01:00:43Z</time>
      </trkpt>
      <trkpt lat="43.75972000" lon="13.12881000">
        <ele>27.000000</ele>
        <time>2010-01-01T01:01:21Z</time>
      </trkpt>
      <trkpt lat="43.75972000" lon="13.12880000">
        <ele>27.000000</ele>
        <time>2010-01-01T01:01:21Z</time>
      </trkpt>
      <trkpt lat="43.75970000" lon="13.12878000">
        <ele>27.000000</ele>
        <time>2010-01-01T01:01:22Z</time>
      </trkpt>
      <trkpt lat="43.75987000" lon="13.12834000">
        <ele>33.000000</ele>
        <time>2010-01-01T01:01:36Z</time>
      </trkpt>
      <trkpt lat="43.76043000" lon="13.12668000">
        <ele>49.000000</ele>
        <time>2010-01-01T01:02:29Z</time>
      </trkpt>
      <trkpt lat="43.76072000" lon="13.12596000">
        <ele>54.000000</ele>
        <time>2010-01-01T01:02:53Z</time>
      </trkpt>
      <trkpt lat="43.76087000" lon="13.12534000">
        <ele>59.000000</ele>
        <time>2010-01-01T01:03:12Z</time>
      </trkpt>
      <trkpt lat="43.76108000" lon="13.12484000">
        <ele>64.000000</ele>
        <time>2010-01-01T01:03:29Z</time>
      </trkpt>
      <trkpt lat="43.76145000" lon="13.12426000">
        <ele>65.000000</ele>
        <time>2010-01-01T01:03:51Z</time>
      </trkpt>
      <trkpt lat="43.76353000" lon="13.11946000">
        <ele>78.000000</ele>
        <time>2010-01-01T01:06:33Z</time>
      </trkpt>
      <trkpt lat="43.76360000" lon="13.11939000">
        <ele>79.000000</ele>
        <time>2010-01-01T01:06:37Z</time>
      </trkpt>
      <trkpt lat="43.76366000" lon="13.11938000">
        <ele>79.000000</ele>
        <time>2010-01-01T01:06:39Z</time>
      </trkpt>
      <trkpt lat="43.76381000" lon="13.11847000">
        <ele>77.000000</ele>
        <time>2010-01-01T01:07:06Z</time>
      </trkpt>
      <trkpt lat="43.76399000" lon="13.11774000">
        <ele>77.000000</ele>
        <time>2010-01-01T01:07:28Z</time>
      </trkpt>
      <trkpt lat="43.76482000" lon="13.11606000">
        <ele>85.000000</ele>
        <time>2010-01-01T01:08:27Z</time>
      </trkpt>
      <trkpt lat="43.76487000" lon="13.11590000">
        <ele>86.000000</ele>
        <time>2010-01-01T01:08:32Z</time>
      </trkpt>
      <trkpt lat="43.76493000" lon="13.11566000">
        <ele>87.000000</ele>
        <time>2010-01-01T01:08:39Z</time>
      </trkpt>
      <trkpt lat="43.76494000" lon="13.11534000">
        <ele>89.000000</ele>
        <time>2010-01-01T01:08:49Z</time>
      </trkpt>
      <trkpt lat="43.76487000" lon="13.11509000">
        <ele>92.000000</ele>
        <time>2010-01-01T01:08:56Z</time>
      </trkpt>
      <trkpt lat="43.76466000" lon="13.11483000">
        <ele>96.000000</ele>
        <time>2010-01-01T01:09:08Z</time>
      </trkpt>
      <trkpt lat="43.76449000" lon="13.11452000">
        <ele>99.000000</ele>
        <time>2010-01-01T01:09:19Z</time>
      </trkpt>
      <trkpt lat="43.76436000" lon="13.11392000">
        <ele>104.00000</ele>
        <time>2010-01-01T01:09:37Z</time>
      </trkpt>
      <trkpt lat="43.76410000" lon="13.11342000">
        <ele>111.00000</ele>
        <time>2010-01-01T01:09:55Z</time>
      </trkpt>
      <trkpt lat="43.76282000" lon="13.11175000">
        <ele>111.00000</ele>
        <time>2010-01-01T01:11:05Z</time>
      </trkpt>
      <trkpt lat="43.76281000" lon="13.11175000">
        <ele>111.00000</ele>
        <time>2010-01-01T01:11:06Z</time>
      </trkpt>
      <trkpt lat="43.76271000" lon="13.11161000">
        <ele>110.00000</ele>
        <time>2010-01-01T01:11:11Z</time>
      </trkpt>
      <trkpt lat="43.76377000" lon="13.11052000">
        <ele>114.00000</ele>
        <time>2010-01-01T01:12:04Z</time>
      </trkpt>
      <trkpt lat="43.76409000" lon="13.11029000">
        <ele>115.00000</ele>
        <time>2010-01-01T01:12:19Z</time>
      </trkpt>
      <trkpt lat="43.76431000" lon="13.11017000">
        <ele>115.00000</ele>
        <time>2010-01-01T01:12:28Z</time>
      </trkpt>
      <trkpt lat="43.76454000" lon="13.11008000">
        <ele>114.00000</ele>
        <time>2010-01-01T01:12:38Z</time>
      </trkpt>
      <trkpt lat="43.76514000" lon="13.10993000">
        <ele>110.00000</ele>
        <time>2010-01-01T01:13:02Z</time>
      </trkpt>
      <trkpt lat="43.76553000" lon="13.10979000">
        <ele>108.00000</ele>
        <time>2010-01-01T01:13:18Z</time>
      </trkpt>
      <trkpt lat="43.76580000" lon="13.10951000">
        <ele>107.00000</ele>
        <time>2010-01-01T01:13:32Z</time>
      </trkpt>
      <trkpt lat="43.76737000" lon="13.10726000">
        <ele>109.00000</ele>
        <time>2010-01-01T01:15:02Z</time>
      </trkpt>
      <trkpt lat="43.76764000" lon="13.10694000">
        <ele>110.00000</ele>
        <time>2010-01-01T01:15:16Z</time>
      </trkpt>
      <trkpt lat="43.76790000" lon="13.10648000">
        <ele>109.00000</ele>
        <time>2010-01-01T01:15:33Z</time>
      </trkpt>
      <trkpt lat="43.76817000" lon="13.10591000">
        <ele>108.00000</ele>
        <time>2010-01-01T01:15:53Z</time>
      </trkpt>
      <trkpt lat="43.76836000" lon="13.10540000">
        <ele>111.00000</ele>
        <time>2010-01-01T01:16:10Z</time>
      </trkpt>
      <trkpt lat="43.76860000" lon="13.10460000">
        <ele>113.00000</ele>
        <time>2010-01-01T01:16:35Z</time>
      </trkpt>
      <trkpt lat="43.76887000" lon="13.10361000">
        <ele>105.00000</ele>
        <time>2010-01-01T01:17:05Z</time>
      </trkpt>
      <trkpt lat="43.76933000" lon="13.10226000">
        <ele>109.00000</ele>
        <time>2010-01-01T01:17:48Z</time>
      </trkpt>
      <trkpt lat="43.76956000" lon="13.10136000">
        <ele>107.00000</ele>
        <time>2010-01-01T01:18:16Z</time>
      </trkpt>
      <trkpt lat="43.76975000" lon="13.10021000">
        <ele>113.00000</ele>
        <time>2010-01-01T01:18:50Z</time>
      </trkpt>
      <trkpt lat="43.77005000" lon="13.09829000">
        <ele>116.00000</ele>
        <time>2010-01-01T01:19:47Z</time>
      </trkpt>
      <trkpt lat="43.77008000" lon="13.09791000">
        <ele>115.00000</ele>
        <time>2010-01-01T01:19:58Z</time>
      </trkpt>
      <trkpt lat="43.77009000" lon="13.09757000">
        <ele>115.00000</ele>
        <time>2010-01-01T01:20:08Z</time>
      </trkpt>
      <trkpt lat="43.77003000" lon="13.09702000">
        <ele>117.00000</ele>
        <time>2010-01-01T01:20:24Z</time>
      </trkpt>
      <trkpt lat="43.77003000" lon="13.09701000">
        <ele>117.00000</ele>
        <time>2010-01-01T01:20:24Z</time>
      </trkpt>
      <trkpt lat="43.76992000" lon="13.09592000">
        <ele>116.00000</ele>
        <time>2010-01-01T01:20:56Z</time>
      </trkpt>
      <trkpt lat="43.76987000" lon="13.09514000">
        <ele>118.00000</ele>
        <time>2010-01-01T01:21:19Z</time>
      </trkpt>
      <trkpt lat="43.76974000" lon="13.09432000">
        <ele>118.00000</ele>
        <time>2010-01-01T01:21:43Z</time>
      </trkpt>
      <trkpt lat="43.76943000" lon="13.09306000">
        <ele>125.00000</ele>
        <time>2010-01-01T01:22:21Z</time>
      </trkpt>
      <trkpt lat="43.76929000" lon="13.09261000">
        <ele>128.00000</ele>
        <time>2010-01-01T01:22:35Z</time>
      </trkpt>
      <trkpt lat="43.76899000" lon="13.09149000">
        <ele>135.00000</ele>
        <time>2010-01-01T01:23:10Z</time>
      </trkpt>
      <trkpt lat="43.76872000" lon="13.09076000">
        <ele>139.00000</ele>
        <time>2010-01-01T01:23:34Z</time>
      </trkpt>
      <trkpt lat="43.76858000" lon="13.09049000">
        <ele>139.00000</ele>
        <time>2010-01-01T01:23:43Z</time>
      </trkpt>
      <trkpt lat="43.76841000" lon="13.09022000">
        <ele>140.00000</ele>
        <time>2010-01-01T01:23:54Z</time>
      </trkpt>
      <trkpt lat="43.76731000" lon="13.08857000">
        <ele>149.00000</ele>
        <time>2010-01-01T01:24:59Z</time>
      </trkpt>
      <trkpt lat="43.76681000" lon="13.08770000">
        <ele>153.00000</ele>
        <time>2010-01-01T01:25:31Z</time>
      </trkpt>
      <trkpt lat="43.76677000" lon="13.08755000">
        <ele>154.00000</ele>
        <time>2010-01-01T01:25:35Z</time>
      </trkpt>
      <trkpt lat="43.76676000" lon="13.08735000">
        <ele>153.00000</ele>
        <time>2010-01-01T01:25:41Z</time>
      </trkpt>
      <trkpt lat="43.76713000" lon="13.08619000">
        <ele>150.00000</ele>
        <time>2010-01-01T01:26:18Z</time>
      </trkpt>
      <trkpt lat="43.76757000" lon="13.08472000">
        <ele>142.00000</ele>
        <time>2010-01-01T01:27:04Z</time>
      </trkpt>
      <trkpt lat="43.76775000" lon="13.08403000">
        <ele>142.00000</ele>
        <time>2010-01-01T01:27:25Z</time>
      </trkpt>
      <trkpt lat="43.76787000" lon="13.08368000">
        <ele>142.00000</ele>
        <time>2010-01-01T01:27:36Z</time>
      </trkpt>
      <trkpt lat="43.76802000" lon="13.08329000">
        <ele>142.00000</ele>
        <time>2010-01-01T01:27:49Z</time>
      </trkpt>
      <trkpt lat="43.76941000" lon="13.08012000">
        <ele>142.00000</ele>
        <time>2010-01-01T01:29:36Z</time>
      </trkpt>
      <trkpt lat="43.76966000" lon="13.07940000">
        <ele>143.00000</ele>
        <time>2010-01-01T01:29:59Z</time>
      </trkpt>
      <trkpt lat="43.76974000" lon="13.07890000">
        <ele>147.00000</ele>
        <time>2010-01-01T01:30:14Z</time>
      </trkpt>
      <trkpt lat="43.76990000" lon="13.07764000">
        <ele>150.00000</ele>
        <time>2010-01-01T01:30:51Z</time>
      </trkpt>
      <trkpt lat="43.76992000" lon="13.07727000">
        <ele>149.00000</ele>
        <time>2010-01-01T01:31:02Z</time>
      </trkpt>
      <trkpt lat="43.76992000" lon="13.07697000">
        <ele>149.00000</ele>
        <time>2010-01-01T01:31:10Z</time>
      </trkpt>
      <trkpt lat="43.76990000" lon="13.07672000">
        <ele>149.00000</ele>
        <time>2010-01-01T01:31:18Z</time>
      </trkpt>
      <trkpt lat="43.76983000" lon="13.07642000">
        <ele>149.00000</ele>
        <time>2010-01-01T01:31:27Z</time>
      </trkpt>
      <trkpt lat="43.76951000" lon="13.07531000">
        <ele>144.00000</ele>
        <time>2010-01-01T01:32:01Z</time>
      </trkpt>
      <trkpt lat="43.76951000" lon="13.07515000">
        <ele>144.00000</ele>
        <time>2010-01-01T01:32:06Z</time>
      </trkpt>
      <trkpt lat="43.76954000" lon="13.07504000">
        <ele>144.00000</ele>
        <time>2010-01-01T01:32:09Z</time>
      </trkpt>
      <trkpt lat="43.76953000" lon="13.07497000">
        <ele>144.00000</ele>
        <time>2010-01-01T01:32:12Z</time>
      </trkpt>
      <trkpt lat="43.76950000" lon="13.07491000">
        <ele>144.00000</ele>
        <time>2010-01-01T01:32:14Z</time>
      </trkpt>
      <trkpt lat="43.76923000" lon="13.07480000">
        <ele>144.00000</ele>
        <time>2010-01-01T01:32:25Z</time>
      </trkpt>
      <trkpt lat="43.76933000" lon="13.07497000">
        <ele>144.00000</ele>
        <time>2010-01-01T01:32:31Z</time>
      </trkpt>
      <trkpt lat="43.76933000" lon="13.07496000">
        <ele>144.00000</ele>
        <time>2010-01-01T01:32:32Z</time>
      </trkpt>
      <trkpt lat="43.76951000" lon="13.07531000">
        <ele>144.00000</ele>
        <time>2010-01-01T01:32:44Z</time>
      </trkpt>
      <trkpt lat="43.76951000" lon="13.07515000">
        <ele>144.00000</ele>
        <time>2010-01-01T01:32:49Z</time>
      </trkpt>
      <trkpt lat="43.76954000" lon="13.07504000">
        <ele>144.00000</ele>
        <time>2010-01-01T01:32:52Z</time>
      </trkpt>
      <trkpt lat="43.76953000" lon="13.07497000">
        <ele>144.00000</ele>
        <time>2010-01-01T01:32:54Z</time>
      </trkpt>
      <trkpt lat="43.76950000" lon="13.07491000">
        <ele>144.00000</ele>
        <time>2010-01-01T01:32:56Z</time>
      </trkpt>
      <trkpt lat="43.76923000" lon="13.07480000">
        <ele>144.00000</ele>
        <time>2010-01-01T01:33:07Z</time>
      </trkpt>
      <trkpt lat="43.76865000" lon="13.07444000">
        <ele>146.00000</ele>
        <time>2010-01-01T01:33:33Z</time>
      </trkpt>
      <trkpt lat="43.76793000" lon="13.07398000">
        <ele>140.00000</ele>
        <time>2010-01-01T01:34:05Z</time>
      </trkpt>
      <trkpt lat="43.76647000" lon="13.07297000">
        <ele>144.00000</ele>
        <time>2010-01-01T01:35:10Z</time>
      </trkpt>
      <trkpt lat="43.76592000" lon="13.07268000">
        <ele>147.00000</ele>
        <time>2010-01-01T01:35:33Z</time>
      </trkpt>
      <trkpt lat="43.76554000" lon="13.07240000">
        <ele>147.00000</ele>
        <time>2010-01-01T01:35:51Z</time>
      </trkpt>
      <trkpt lat="43.76405000" lon="13.07105000">
        <ele>150.00000</ele>
        <time>2010-01-01T01:37:02Z</time>
      </trkpt>
      <trkpt lat="43.76402000" lon="13.07098000">
        <ele>150.00000</ele>
        <time>2010-01-01T01:37:04Z</time>
      </trkpt>
      <trkpt lat="43.76402000" lon="13.07091000">
        <ele>150.00000</ele>
        <time>2010-01-01T01:37:06Z</time>
      </trkpt>
      <trkpt lat="43.76412000" lon="13.07069000">
        <ele>149.00000</ele>
        <time>2010-01-01T01:37:14Z</time>
      </trkpt>
      <trkpt lat="43.76413000" lon="13.07059000">
        <ele>148.00000</ele>
        <time>2010-01-01T01:37:17Z</time>
      </trkpt>
      <trkpt lat="43.76412000" lon="13.07046000">
        <ele>147.00000</ele>
        <time>2010-01-01T01:37:21Z</time>
      </trkpt>
      <trkpt lat="43.76407000" lon="13.07030000">
        <ele>146.00000</ele>
        <time>2010-01-01T01:37:26Z</time>
      </trkpt>
      <trkpt lat="43.76381000" lon="13.06981000">
        <ele>145.00000</ele>
        <time>2010-01-01T01:37:43Z</time>
      </trkpt>
      <trkpt lat="43.76350000" lon="13.06931000">
        <ele>148.00000</ele>
        <time>2010-01-01T01:38:02Z</time>
      </trkpt>
      <trkpt lat="43.76341000" lon="13.06923000">
        <ele>150.00000</ele>
        <time>2010-01-01T01:38:07Z</time>
      </trkpt>
      <trkpt lat="43.76333000" lon="13.06921000">
        <ele>151.00000</ele>
        <time>2010-01-01T01:38:10Z</time>
      </trkpt>
      <trkpt lat="43.76327000" lon="13.06921000">
        <ele>152.00000</ele>
        <time>2010-01-01T01:38:12Z</time>
      </trkpt>
      <trkpt lat="43.76309000" lon="13.06931000">
        <ele>153.00000</ele>
        <time>2010-01-01T01:38:20Z</time>
      </trkpt>
      <trkpt lat="43.76302000" lon="13.06933000">
        <ele>153.00000</ele>
        <time>2010-01-01T01:38:23Z</time>
      </trkpt>
      <trkpt lat="43.76290000" lon="13.06930000">
        <ele>154.00000</ele>
        <time>2010-01-01T01:38:28Z</time>
      </trkpt>
      <trkpt lat="43.76281000" lon="13.06918000">
        <ele>156.00000</ele>
        <time>2010-01-01T01:38:33Z</time>
      </trkpt>
      <trkpt lat="43.76272000" lon="13.06901000">
        <ele>158.00000</ele>
        <time>2010-01-01T01:38:39Z</time>
      </trkpt>
      <trkpt lat="43.76254000" lon="13.06859000">
        <ele>158.00000</ele>
        <time>2010-01-01T01:38:53Z</time>
      </trkpt>
      <trkpt lat="43.76248000" lon="13.06836000">
        <ele>158.00000</ele>
        <time>2010-01-01T01:39:00Z</time>
      </trkpt>
      <trkpt lat="43.76241000" lon="13.06827000">
        <ele>158.00000</ele>
        <time>2010-01-01T01:39:04Z</time>
      </trkpt>
      <trkpt lat="43.76193000" lon="13.06796000">
        <ele>160.00000</ele>
        <time>2010-01-01T01:39:25Z</time>
      </trkpt>
      <trkpt lat="43.76105000" lon="13.06747000">
        <ele>161.00000</ele>
        <time>2010-01-01T01:40:03Z</time>
      </trkpt>
      <trkpt lat="43.76080000" lon="13.06723000">
        <ele>159.00000</ele>
        <time>2010-01-01T01:40:15Z</time>
      </trkpt>
      <trkpt lat="43.76024000" lon="13.06644000">
        <ele>158.00000</ele>
        <time>2010-01-01T01:40:47Z</time>
      </trkpt>
      <trkpt lat="43.75957000" lon="13.06573000">
        <ele>153.00000</ele>
        <time>2010-01-01T01:41:21Z</time>
      </trkpt>
      <trkpt lat="43.75891000" lon="13.06498000">
        <ele>157.00000</ele>
        <time>2010-01-01T01:41:55Z</time>
      </trkpt>
      <trkpt lat="43.75868000" lon="13.06474000">
        <ele>159.00000</ele>
        <time>2010-01-01T01:42:07Z</time>
      </trkpt>
      <trkpt lat="43.75848000" lon="13.06456000">
        <ele>159.00000</ele>
        <time>2010-01-01T01:42:16Z</time>
      </trkpt>
      <trkpt lat="43.75818000" lon="13.06435000">
        <ele>160.00000</ele>
        <time>2010-01-01T01:42:30Z</time>
      </trkpt>
      <trkpt lat="43.75798000" lon="13.06418000">
        <ele>160.00000</ele>
        <time>2010-01-01T01:42:39Z</time>
      </trkpt>
      <trkpt lat="43.75778000" lon="13.06397000">
        <ele>160.00000</ele>
        <time>2010-01-01T01:42:49Z</time>
      </trkpt>
      <trkpt lat="43.75758000" lon="13.06372000">
        <ele>158.00000</ele>
        <time>2010-01-01T01:43:00Z</time>
      </trkpt>
      <trkpt lat="43.75729000" lon="13.06331000">
        <ele>159.00000</ele>
        <time>2010-01-01T01:43:16Z</time>
      </trkpt>
      <trkpt lat="43.75715000" lon="13.06306000">
        <ele>160.00000</ele>
        <time>2010-01-01T01:43:26Z</time>
      </trkpt>
      <trkpt lat="43.75609000" lon="13.06055000">
        <ele>170.00000</ele>
        <time>2010-01-01T01:44:50Z</time>
      </trkpt>
      <trkpt lat="43.75609000" lon="13.06054000">
        <ele>170.00000</ele>
        <time>2010-01-01T01:44:50Z</time>
      </trkpt>
      <trkpt lat="43.75603000" lon="13.06036000">
        <ele>171.00000</ele>
        <time>2010-01-01T01:44:56Z</time>
      </trkpt>
      <trkpt lat="43.75599000" lon="13.06015000">
        <ele>172.00000</ele>
        <time>2010-01-01T01:45:02Z</time>
      </trkpt>
      <trkpt lat="43.75582000" lon="13.05849000">
        <ele>183.00000</ele>
        <time>2010-01-01T01:45:50Z</time>
      </trkpt>
      <trkpt lat="43.75571000" lon="13.05846000">
        <ele>182.00000</ele>
        <time>2010-01-01T01:45:55Z</time>
      </trkpt>
      <trkpt lat="43.75547000" lon="13.05823000">
        <ele>180.00000</ele>
        <time>2010-01-01T01:46:07Z</time>
      </trkpt>
      <trkpt lat="43.75517000" lon="13.05784000">
        <ele>180.00000</ele>
        <time>2010-01-01T01:46:23Z</time>
      </trkpt>
      <trkpt lat="43.75509000" lon="13.05777000">
        <ele>180.00000</ele>
        <time>2010-01-01T01:46:27Z</time>
      </trkpt>
      <trkpt lat="43.75503000" lon="13.05772000">
        <ele>180.00000</ele>
        <time>2010-01-01T01:46:30Z</time>
      </trkpt>
      <trkpt lat="43.75483000" lon="13.05763000">
        <ele>180.00000</ele>
        <time>2010-01-01T01:46:38Z</time>
      </trkpt>
      <trkpt lat="43.75460000" lon="13.05759000">
        <ele>180.00000</ele>
        <time>2010-01-01T01:46:47Z</time>
      </trkpt>
      <trkpt lat="43.75393000" lon="13.05759000">
        <ele>181.00000</ele>
        <time>2010-01-01T01:47:14Z</time>
      </trkpt>
      <trkpt lat="43.75345000" lon="13.05756000">
        <ele>179.00000</ele>
        <time>2010-01-01T01:47:33Z</time>
      </trkpt>
      <trkpt lat="43.75256000" lon="13.05729000">
        <ele>177.00000</ele>
        <time>2010-01-01T01:48:10Z</time>
      </trkpt>
      <trkpt lat="43.75251000" lon="13.05715000">
        <ele>176.00000</ele>
        <time>2010-01-01T01:48:14Z</time>
      </trkpt>
      <trkpt lat="43.75243000" lon="13.05704000">
        <ele>177.00000</ele>
        <time>2010-01-01T01:48:19Z</time>
      </trkpt>
      <trkpt lat="43.75225000" lon="13.05689000">
        <ele>177.00000</ele>
        <time>2010-01-01T01:48:27Z</time>
      </trkpt>
      <trkpt lat="43.75195000" lon="13.05667000">
        <ele>178.00000</ele>
        <time>2010-01-01T01:48:41Z</time>
      </trkpt>
      <trkpt lat="43.75179000" lon="13.05659000">
        <ele>178.00000</ele>
        <time>2010-01-01T01:48:48Z</time>
      </trkpt>
      <trkpt lat="43.75171000" lon="13.05651000">
        <ele>178.00000</ele>
        <time>2010-01-01T01:48:52Z</time>
      </trkpt>
      <trkpt lat="43.75146000" lon="13.05620000">
        <ele>177.00000</ele>
        <time>2010-01-01T01:49:05Z</time>
      </trkpt>
      <trkpt lat="43.75094000" lon="13.05549000">
        <ele>168.00000</ele>
        <time>2010-01-01T01:49:34Z</time>
      </trkpt>
      <trkpt lat="43.75077000" lon="13.05531000">
        <ele>167.00000</ele>
        <time>2010-01-01T01:49:43Z</time>
      </trkpt>
      <trkpt lat="43.75019000" lon="13.05510000">
        <ele>166.00000</ele>
        <time>2010-01-01T01:50:07Z</time>
      </trkpt>
      <trkpt lat="43.75007000" lon="13.05502000">
        <ele>165.00000</ele>
        <time>2010-01-01T01:50:12Z</time>
      </trkpt>
      <trkpt lat="43.75006000" lon="13.05502000">
        <ele>165.00000</ele>
        <time>2010-01-01T01:50:13Z</time>
      </trkpt>
      <trkpt lat="43.74958000" lon="13.05465000">
        <ele>161.00000</ele>
        <time>2010-01-01T01:50:35Z</time>
      </trkpt>
      <trkpt lat="43.74869000" lon="13.05370000">
        <ele>153.00000</ele>
        <time>2010-01-01T01:51:20Z</time>
      </trkpt>
      <trkpt lat="43.74838000" lon="13.05341000">
        <ele>152.00000</ele>
        <time>2010-01-01T01:51:35Z</time>
      </trkpt>
      <trkpt lat="43.74805000" lon="13.05303000">
        <ele>151.00000</ele>
        <time>2010-01-01T01:51:52Z</time>
      </trkpt>
      <trkpt lat="43.74749000" lon="13.05226000">
        <ele>149.00000</ele>
        <time>2010-01-01T01:52:23Z</time>
      </trkpt>
      <trkpt lat="43.74733000" lon="13.05199000">
        <ele>149.00000</ele>
        <time>2010-01-01T01:52:33Z</time>
      </trkpt>
      <trkpt lat="43.74695000" lon="13.05126000">
        <ele>149.00000</ele>
        <time>2010-01-01T01:53:00Z</time>
      </trkpt>
      <trkpt lat="43.74686000" lon="13.05111000">
        <ele>148.00000</ele>
        <time>2010-01-01T01:53:05Z</time>
      </trkpt>
      <trkpt lat="43.74677000" lon="13.05102000">
        <ele>147.00000</ele>
        <time>2010-01-01T01:53:10Z</time>
      </trkpt>
      <trkpt lat="43.74649000" lon="13.05080000">
        <ele>145.00000</ele>
        <time>2010-01-01T01:53:22Z</time>
      </trkpt>
      <trkpt lat="43.74615000" lon="13.05059000">
        <ele>144.00000</ele>
        <time>2010-01-01T01:53:37Z</time>
      </trkpt>
      <trkpt lat="43.74590000" lon="13.05032000">
        <ele>144.00000</ele>
        <time>2010-01-01T01:53:50Z</time>
      </trkpt>
      <trkpt lat="43.74540000" lon="13.04987000">
        <ele>142.00000</ele>
        <time>2010-01-01T01:54:14Z</time>
      </trkpt>
      <trkpt lat="43.74515000" lon="13.04956000">
        <ele>139.00000</ele>
        <time>2010-01-01T01:54:27Z</time>
      </trkpt>
      <trkpt lat="43.74495000" lon="13.04918000">
        <ele>138.00000</ele>
        <time>2010-01-01T01:54:41Z</time>
      </trkpt>
      <trkpt lat="43.74475000" lon="13.04868000">
        <ele>133.00000</ele>
        <time>2010-01-01T01:54:58Z</time>
      </trkpt>
      <trkpt lat="43.74466000" lon="13.04848000">
        <ele>131.00000</ele>
        <time>2010-01-01T01:55:04Z</time>
      </trkpt>
      <trkpt lat="43.74458000" lon="13.04835000">
        <ele>131.00000</ele>
        <time>2010-01-01T01:55:09Z</time>
      </trkpt>
      <trkpt lat="43.74405000" lon="13.04780000">
        <ele>130.00000</ele>
        <time>2010-01-01T01:55:36Z</time>
      </trkpt>
      <trkpt lat="43.74392000" lon="13.04763000">
        <ele>130.00000</ele>
        <time>2010-01-01T01:55:43Z</time>
      </trkpt>
      <trkpt lat="43.74375000" lon="13.04739000">
        <ele>131.00000</ele>
        <time>2010-01-01T01:55:53Z</time>
      </trkpt>
      <trkpt lat="43.74339000" lon="13.04667000">
        <ele>128.00000</ele>
        <time>2010-01-01T01:56:18Z</time>
      </trkpt>
      <trkpt lat="43.74346000" lon="13.04595000">
        <ele>127.00000</ele>
        <time>2010-01-01T01:56:39Z</time>
      </trkpt>
      <trkpt lat="43.74346000" lon="13.04533000">
        <ele>123.00000</ele>
        <time>2010-01-01T01:56:57Z</time>
      </trkpt>
      <trkpt lat="43.74326000" lon="13.04430000">
        <ele>119.00000</ele>
        <time>2010-01-01T01:57:28Z</time>
      </trkpt>
      <trkpt lat="43.74301000" lon="13.04334000">
        <ele>118.00000</ele>
        <time>2010-01-01T01:57:57Z</time>
      </trkpt>
      <trkpt lat="43.74282000" lon="13.04274000">
        <ele>117.00000</ele>
        <time>2010-01-01T01:58:16Z</time>
      </trkpt>
      <trkpt lat="43.74272000" lon="13.04254000">
        <ele>115.00000</ele>
        <time>2010-01-01T01:58:23Z</time>
      </trkpt>
      <trkpt lat="43.74202000" lon="13.04181000">
        <ele>104.00000</ele>
        <time>2010-01-01T01:58:58Z</time>
      </trkpt>
      <trkpt lat="43.74161000" lon="13.04123000">
        <ele>101.00000</ele>
        <time>2010-01-01T01:59:22Z</time>
      </trkpt>
      <trkpt lat="43.74118000" lon="13.04048000">
        <ele>100.00000</ele>
        <time>2010-01-01T01:59:49Z</time>
      </trkpt>
      <trkpt lat="43.74022000" lon="13.03865000">
        <ele>78.000000</ele>
        <time>2010-01-01T02:00:55Z</time>
      </trkpt>
      <trkpt lat="43.73980000" lon="13.03795000">
        <ele>72.000000</ele>
        <time>2010-01-01T02:01:21Z</time>
      </trkpt>
      <trkpt lat="43.73931000" lon="13.03717000">
        <ele>62.000000</ele>
        <time>2010-01-01T02:01:51Z</time>
      </trkpt>
      <trkpt lat="43.73885000" lon="13.03664000">
        <ele>58.000000</ele>
        <time>2010-01-01T02:02:15Z</time>
      </trkpt>
      <trkpt lat="43.73833000" lon="13.03633000">
        <ele>59.000000</ele>
        <time>2010-01-01T02:02:38Z</time>
      </trkpt>
      <trkpt lat="43.73777000" lon="13.03572000">
        <ele>62.000000</ele>
        <time>2010-01-01T02:03:06Z</time>
      </trkpt>
      <trkpt lat="43.73737000" lon="13.03516000">
        <ele>61.000000</ele>
        <time>2010-01-01T02:03:29Z</time>
      </trkpt>
      <trkpt lat="43.73727000" lon="13.03496000">
        <ele>61.000000</ele>
        <time>2010-01-01T02:03:36Z</time>
      </trkpt>
      <trkpt lat="43.73727000" lon="13.03462000">
        <ele>61.000000</ele>
        <time>2010-01-01T02:03:46Z</time>
      </trkpt>
      <trkpt lat="43.73741000" lon="13.03323000">
        <ele>70.000000</ele>
        <time>2010-01-01T02:04:26Z</time>
      </trkpt>
      <trkpt lat="43.73743000" lon="13.03281000">
        <ele>73.000000</ele>
        <time>2010-01-01T02:04:39Z</time>
      </trkpt>
      <trkpt lat="43.73740000" lon="13.03245000">
        <ele>76.000000</ele>
        <time>2010-01-01T02:04:49Z</time>
      </trkpt>
      <trkpt lat="43.73731000" lon="13.03208000">
        <ele>79.000000</ele>
        <time>2010-01-01T02:05:00Z</time>
      </trkpt>
      <trkpt lat="43.73723000" lon="13.03163000">
        <ele>82.000000</ele>
        <time>2010-01-01T02:05:14Z</time>
      </trkpt>
      <trkpt lat="43.73725000" lon="13.03129000">
        <ele>84.000000</ele>
        <time>2010-01-01T02:05:24Z</time>
      </trkpt>
      <trkpt lat="43.73740000" lon="13.03091000">
        <ele>88.000000</ele>
        <time>2010-01-01T02:05:36Z</time>
      </trkpt>
      <trkpt lat="43.73756000" lon="13.03043000">
        <ele>90.000000</ele>
        <time>2010-01-01T02:05:52Z</time>
      </trkpt>
      <trkpt lat="43.73757000" lon="13.02902000">
        <ele>94.000000</ele>
        <time>2010-01-01T02:06:32Z</time>
      </trkpt>
      <trkpt lat="43.73752000" lon="13.02766000">
        <ele>101.00000</ele>
        <time>2010-01-01T02:07:12Z</time>
      </trkpt>
      <trkpt lat="43.73741000" lon="13.02590000">
        <ele>117.00000</ele>
        <time>2010-01-01T02:08:03Z</time>
      </trkpt>
      <trkpt lat="43.73731000" lon="13.02496000">
        <ele>118.00000</ele>
        <time>2010-01-01T02:08:30Z</time>
      </trkpt>
      <trkpt lat="43.73710000" lon="13.02359000">
        <ele>120.00000</ele>
        <time>2010-01-01T02:09:11Z</time>
      </trkpt>
      <trkpt lat="43.73709000" lon="13.02262000">
        <ele>122.00000</ele>
        <time>2010-01-01T02:09:39Z</time>
      </trkpt>
      <trkpt lat="43.73710000" lon="13.02178000">
        <ele>125.00000</ele>
        <time>2010-01-01T02:10:03Z</time>
      </trkpt>
      <trkpt lat="43.73709000" lon="13.02130000">
        <ele>128.00000</ele>
        <time>2010-01-01T02:10:17Z</time>
      </trkpt>
      <trkpt lat="43.73697000" lon="13.02069000">
        <ele>132.00000</ele>
        <time>2010-01-01T02:10:35Z</time>
      </trkpt>
      <trkpt lat="43.73677000" lon="13.02021000">
        <ele>135.00000</ele>
        <time>2010-01-01T02:10:51Z</time>
      </trkpt>
      <trkpt lat="43.73649000" lon="13.01898000">
        <ele>138.00000</ele>
        <time>2010-01-01T02:11:29Z</time>
      </trkpt>
      <trkpt lat="43.73641000" lon="13.01874000">
        <ele>139.00000</ele>
        <time>2010-01-01T02:11:36Z</time>
      </trkpt>
      <trkpt lat="43.73623000" lon="13.01829000">
        <ele>141.00000</ele>
        <time>2010-01-01T02:11:51Z</time>
      </trkpt>
      <trkpt lat="43.73589000" lon="13.01734000">
        <ele>143.00000</ele>
        <time>2010-01-01T02:12:22Z</time>
      </trkpt>
      <trkpt lat="43.73578000" lon="13.01695000">
        <ele>144.00000</ele>
        <time>2010-01-01T02:12:34Z</time>
      </trkpt>
      <trkpt lat="43.73559000" lon="13.01610000">
        <ele>145.00000</ele>
        <time>2010-01-01T02:13:00Z</time>
      </trkpt>
      <trkpt lat="43.73533000" lon="13.01514000">
        <ele>148.00000</ele>
        <time>2010-01-01T02:13:29Z</time>
      </trkpt>
      <trkpt lat="43.73507000" lon="13.01432000">
        <ele>151.00000</ele>
        <time>2010-01-01T02:13:55Z</time>
      </trkpt>
      <trkpt lat="43.73457000" lon="13.01283000">
        <ele>149.00000</ele>
        <time>2010-01-01T02:14:43Z</time>
      </trkpt>
      <trkpt lat="43.73444000" lon="13.01254000">
        <ele>151.00000</ele>
        <time>2010-01-01T02:14:53Z</time>
      </trkpt>
      <trkpt lat="43.73429000" lon="13.01230000">
        <ele>152.00000</ele>
        <time>2010-01-01T02:15:02Z</time>
      </trkpt>
      <trkpt lat="43.73349000" lon="13.01151000">
        <ele>148.00000</ele>
        <time>2010-01-01T02:15:41Z</time>
      </trkpt>
      <trkpt lat="43.73208000" lon="13.01020000">
        <ele>157.00000</ele>
        <time>2010-01-01T02:16:49Z</time>
      </trkpt>
      <trkpt lat="43.73171000" lon="13.00997000">
        <ele>157.00000</ele>
        <time>2010-01-01T02:17:05Z</time>
      </trkpt>
      <trkpt lat="43.73123000" lon="13.00958000">
        <ele>161.00000</ele>
        <time>2010-01-01T02:17:28Z</time>
      </trkpt>
      <trkpt lat="43.73070000" lon="13.00900000">
        <ele>165.00000</ele>
        <time>2010-01-01T02:17:55Z</time>
      </trkpt>
      <trkpt lat="43.73042000" lon="13.00876000">
        <ele>168.00000</ele>
        <time>2010-01-01T02:18:08Z</time>
      </trkpt>
      <trkpt lat="43.73005000" lon="13.00836000">
        <ele>169.00000</ele>
        <time>2010-01-01T02:18:27Z</time>
      </trkpt>
      <trkpt lat="43.72970000" lon="13.00782000">
        <ele>170.00000</ele>
        <time>2010-01-01T02:18:48Z</time>
      </trkpt>
      <trkpt lat="43.72946000" lon="13.00734000">
        <ele>174.00000</ele>
        <time>2010-01-01T02:19:05Z</time>
      </trkpt>
      <trkpt lat="43.72946000" lon="13.00733000">
        <ele>174.00000</ele>
        <time>2010-01-01T02:19:05Z</time>
      </trkpt>
      <trkpt lat="43.72910000" lon="13.00663000">
        <ele>179.00000</ele>
        <time>2010-01-01T02:19:30Z</time>
      </trkpt>
      <trkpt lat="43.72896000" lon="13.00648000">
        <ele>181.00000</ele>
        <time>2010-01-01T02:19:37Z</time>
      </trkpt>
      <trkpt lat="43.72883000" lon="13.00646000">
        <ele>181.00000</ele>
        <time>2010-01-01T02:19:42Z</time>
      </trkpt>
      <trkpt lat="43.72874000" lon="13.00655000">
        <ele>181.00000</ele>
        <time>2010-01-01T02:19:46Z</time>
      </trkpt>
      <trkpt lat="43.72812000" lon="13.00782000">
        <ele>173.00000</ele>
        <time>2010-01-01T02:20:31Z</time>
      </trkpt>
      <trkpt lat="43.72796000" lon="13.00802000">
        <ele>171.00000</ele>
        <time>2010-01-01T02:20:39Z</time>
      </trkpt>
      <trkpt lat="43.72780000" lon="13.00815000">
        <ele>170.00000</ele>
        <time>2010-01-01T02:20:47Z</time>
      </trkpt>
      <trkpt lat="43.72682000" lon="13.00852000">
        <ele>175.00000</ele>
        <time>2010-01-01T02:21:27Z</time>
      </trkpt>
      <trkpt lat="43.72581000" lon="13.00878000">
        <ele>182.00000</ele>
        <time>2010-01-01T02:22:09Z</time>
      </trkpt>
      <trkpt lat="43.72553000" lon="13.00878000">
        <ele>182.00000</ele>
        <time>2010-01-01T02:22:20Z</time>
      </trkpt>
      <trkpt lat="43.72410000" lon="13.00830000">
        <ele>179.00000</ele>
        <time>2010-01-01T02:23:19Z</time>
      </trkpt>
      <trkpt lat="43.72376000" lon="13.00821000">
        <ele>181.00000</ele>
        <time>2010-01-01T02:23:33Z</time>
      </trkpt>
      <trkpt lat="43.72363000" lon="13.00819000">
        <ele>181.00000</ele>
        <time>2010-01-01T02:23:38Z</time>
      </trkpt>
      <trkpt lat="43.72323000" lon="13.00817000">
        <ele>180.00000</ele>
        <time>2010-01-01T02:23:54Z</time>
      </trkpt>
      <trkpt lat="43.72288000" lon="13.00812000">
        <ele>183.00000</ele>
        <time>2010-01-01T02:24:08Z</time>
      </trkpt>
      <trkpt lat="43.72267000" lon="13.00804000">
        <ele>185.00000</ele>
        <time>2010-01-01T02:24:17Z</time>
      </trkpt>
      <trkpt lat="43.72243000" lon="13.00793000">
        <ele>187.00000</ele>
        <time>2010-01-01T02:24:27Z</time>
      </trkpt>
      <trkpt lat="43.72073000" lon="13.00700000">
        <ele>179.00000</ele>
        <time>2010-01-01T02:25:40Z</time>
      </trkpt>
      <trkpt lat="43.71716000" lon="13.00510000">
        <ele>162.00000</ele>
        <time>2010-01-01T02:28:13Z</time>
      </trkpt>
      <trkpt lat="43.71667000" lon="13.00487000">
        <ele>161.00000</ele>
        <time>2010-01-01T02:28:34Z</time>
      </trkpt>
      <trkpt lat="43.71545000" lon="13.00455000">
        <ele>169.00000</ele>
        <time>2010-01-01T02:29:23Z</time>
      </trkpt>
      <trkpt lat="43.71461000" lon="13.00437000">
        <ele>177.00000</ele>
        <time>2010-01-01T02:29:57Z</time>
      </trkpt>
      <trkpt lat="43.71438000" lon="13.00434000">
        <ele>180.00000</ele>
        <time>2010-01-01T02:30:07Z</time>
      </trkpt>
      <trkpt lat="43.71414000" lon="13.00433000">
        <ele>182.00000</ele>
        <time>2010-01-01T02:30:16Z</time>
      </trkpt>
      <trkpt lat="43.71318000" lon="13.00440000">
        <ele>192.00000</ele>
        <time>2010-01-01T02:30:55Z</time>
      </trkpt>
      <trkpt lat="43.71280000" lon="13.00429000">
        <ele>198.00000</ele>
        <time>2010-01-01T02:31:10Z</time>
      </trkpt>
      <trkpt lat="43.71258000" lon="13.00420000">
        <ele>201.00000</ele>
        <time>2010-01-01T02:31:20Z</time>
      </trkpt>
      <trkpt lat="43.71216000" lon="13.00392000">
        <ele>205.00000</ele>
        <time>2010-01-01T02:31:38Z</time>
      </trkpt>
      <trkpt lat="43.71177000" lon="13.00361000">
        <ele>213.00000</ele>
        <time>2010-01-01T02:31:56Z</time>
      </trkpt>
      <trkpt lat="43.71155000" lon="13.00333000">
        <ele>215.00000</ele>
        <time>2010-01-01T02:32:08Z</time>
      </trkpt>
      <trkpt lat="43.71136000" lon="13.00307000">
        <ele>217.00000</ele>
        <time>2010-01-01T02:32:19Z</time>
      </trkpt>
      <trkpt lat="43.71080000" lon="13.00217000">
        <ele>217.00000</ele>
        <time>2010-01-01T02:32:53Z</time>
      </trkpt>
      <trkpt lat="43.71080000" lon="13.00216000">
        <ele>217.00000</ele>
        <time>2010-01-01T02:32:54Z</time>
      </trkpt>
      <trkpt lat="43.71065000" lon="13.00186000">
        <ele>217.00000</ele>
        <time>2010-01-01T02:33:04Z</time>
      </trkpt>
      <trkpt lat="43.71061000" lon="13.00184000">
        <ele>217.00000</ele>
        <time>2010-01-01T02:33:06Z</time>
      </trkpt>
      <trkpt lat="43.71055000" lon="13.00183000">
        <ele>218.00000</ele>
        <time>2010-01-01T02:33:08Z</time>
      </trkpt>
      <trkpt lat="43.71047000" lon="13.00186000">
        <ele>218.00000</ele>
        <time>2010-01-01T02:33:12Z</time>
      </trkpt>
      <trkpt lat="43.71042000" lon="13.00211000">
        <ele>220.00000</ele>
        <time>2010-01-01T02:33:19Z</time>
      </trkpt>
      <trkpt lat="43.71013000" lon="13.00316000">
        <ele>225.00000</ele>
        <time>2010-01-01T02:33:52Z</time>
      </trkpt>
      <trkpt lat="43.71009000" lon="13.00336000">
        <ele>225.00000</ele>
        <time>2010-01-01T02:33:58Z</time>
      </trkpt>
      <trkpt lat="43.71007000" lon="13.00360000">
        <ele>224.00000</ele>
        <time>2010-01-01T02:34:05Z</time>
      </trkpt>
      <trkpt lat="43.71009000" lon="13.00389000">
        <ele>224.00000</ele>
        <time>2010-01-01T02:34:13Z</time>
      </trkpt>
      <trkpt lat="43.71017000" lon="13.00464000">
        <ele>218.00000</ele>
        <time>2010-01-01T02:34:35Z</time>
      </trkpt>
      <trkpt lat="43.71018000" lon="13.00510000">
        <ele>215.00000</ele>
        <time>2010-01-01T02:34:48Z</time>
      </trkpt>
      <trkpt lat="43.71012000" lon="13.00641000">
        <ele>210.00000</ele>
        <time>2010-01-01T02:35:26Z</time>
      </trkpt>
      <trkpt lat="43.71007000" lon="13.00709000">
        <ele>207.00000</ele>
        <time>2010-01-01T02:35:46Z</time>
      </trkpt>
      <trkpt lat="43.71002000" lon="13.00814000">
        <ele>204.00000</ele>
        <time>2010-01-01T02:36:16Z</time>
      </trkpt>
      <trkpt lat="43.70984000" lon="13.01081000">
        <ele>204.00000</ele>
        <time>2010-01-01T02:37:34Z</time>
      </trkpt>
      <trkpt lat="43.70979000" lon="13.01124000">
        <ele>207.00000</ele>
        <time>2010-01-01T02:37:47Z</time>
      </trkpt>
      <trkpt lat="43.70970000" lon="13.01160000">
        <ele>209.00000</ele>
        <time>2010-01-01T02:37:58Z</time>
      </trkpt>
      <trkpt lat="43.70955000" lon="13.01191000">
        <ele>211.00000</ele>
        <time>2010-01-01T02:38:08Z</time>
      </trkpt>
      <trkpt lat="43.70935000" lon="13.01214000">
        <ele>214.00000</ele>
        <time>2010-01-01T02:38:19Z</time>
      </trkpt>
      <trkpt lat="43.70908000" lon="13.01236000">
        <ele>216.00000</ele>
        <time>2010-01-01T02:38:31Z</time>
      </trkpt>
      <trkpt lat="43.70877000" lon="13.01258000">
        <ele>219.00000</ele>
        <time>2010-01-01T02:38:45Z</time>
      </trkpt>
      <trkpt lat="43.70839000" lon="13.01276000">
        <ele>223.00000</ele>
        <time>2010-01-01T02:39:01Z</time>
      </trkpt>
      <trkpt lat="43.70612000" lon="13.01365000">
        <ele>246.00000</ele>
        <time>2010-01-01T02:40:36Z</time>
      </trkpt>
      <trkpt lat="43.70584000" lon="13.01379000">
        <ele>250.00000</ele>
        <time>2010-01-01T02:40:48Z</time>
      </trkpt>
      <trkpt lat="43.70567000" lon="13.01394000">
        <ele>251.00000</ele>
        <time>2010-01-01T02:40:56Z</time>
      </trkpt>
      <trkpt lat="43.70551000" lon="13.01419000">
        <ele>252.00000</ele>
        <time>2010-01-01T02:41:06Z</time>
      </trkpt>
      <trkpt lat="43.70543000" lon="13.01443000">
        <ele>250.00000</ele>
        <time>2010-01-01T02:41:13Z</time>
      </trkpt>
      <trkpt lat="43.70538000" lon="13.01460000">
        <ele>249.00000</ele>
        <time>2010-01-01T02:41:19Z</time>
      </trkpt>
      <trkpt lat="43.70560000" lon="13.01531000">
        <ele>251.00000</ele>
        <time>2010-01-01T02:41:41Z</time>
      </trkpt>
      <trkpt lat="43.70571000" lon="13.01557000">
        <ele>252.00000</ele>
        <time>2010-01-01T02:41:50Z</time>
      </trkpt>
      <trkpt lat="43.70585000" lon="13.01582000">
        <ele>252.00000</ele>
        <time>2010-01-01T02:41:59Z</time>
      </trkpt>
      <trkpt lat="43.70603000" lon="13.01607000">
        <ele>250.00000</ele>
        <time>2010-01-01T02:42:09Z</time>
      </trkpt>
      <trkpt lat="43.70720000" lon="13.01739000">
        <ele>242.00000</ele>
        <time>2010-01-01T02:43:09Z</time>
      </trkpt>
      <trkpt lat="43.70744000" lon="13.01772000">
        <ele>237.00000</ele>
        <time>2010-01-01T02:43:23Z</time>
      </trkpt>
      <trkpt lat="43.70771000" lon="13.01818000">
        <ele>235.00000</ele>
        <time>2010-01-01T02:43:40Z</time>
      </trkpt>
      <trkpt lat="43.70843000" lon="13.01955000">
        <ele>226.00000</ele>
        <time>2010-01-01T02:44:29Z</time>
      </trkpt>
      <trkpt lat="43.70906000" lon="13.02080000">
        <ele>215.00000</ele>
        <time>2010-01-01T02:45:13Z</time>
      </trkpt>
      <trkpt lat="43.70994000" lon="13.02249000">
        <ele>212.00000</ele>
        <time>2010-01-01T02:46:13Z</time>
      </trkpt>
      <trkpt lat="43.71031000" lon="13.02331000">
        <ele>209.00000</ele>
        <time>2010-01-01T02:46:41Z</time>
      </trkpt>
      <trkpt lat="43.71061000" lon="13.02399000">
        <ele>210.00000</ele>
        <time>2010-01-01T02:47:04Z</time>
      </trkpt>
      <trkpt lat="43.71126000" lon="13.02505000">
        <ele>208.00000</ele>
        <time>2010-01-01T02:47:45Z</time>
      </trkpt>
      <trkpt lat="43.71177000" lon="13.02580000">
        <ele>206.00000</ele>
        <time>2010-01-01T02:48:14Z</time>
      </trkpt>
      <trkpt lat="43.71245000" lon="13.02691000">
        <ele>212.00000</ele>
        <time>2010-01-01T02:48:57Z</time>
      </trkpt>
      <trkpt lat="43.71295000" lon="13.02780000">
        <ele>215.00000</ele>
        <time>2010-01-01T02:49:29Z</time>
      </trkpt>
      <trkpt lat="43.71331000" lon="13.02854000">
        <ele>218.00000</ele>
        <time>2010-01-01T02:49:55Z</time>
      </trkpt>
      <trkpt lat="43.71367000" lon="13.02920000">
        <ele>220.00000</ele>
        <time>2010-01-01T02:50:19Z</time>
      </trkpt>
      <trkpt lat="43.71412000" lon="13.02976000">
        <ele>221.00000</ele>
        <time>2010-01-01T02:50:43Z</time>
      </trkpt>
      <trkpt lat="43.71412000" lon="13.02975000">
        <ele>221.00000</ele>
        <time>2010-01-01T02:50:43Z</time>
      </trkpt>
      <trkpt lat="43.71450000" lon="13.03024000">
        <ele>223.00000</ele>
        <time>2010-01-01T02:51:04Z</time>
      </trkpt>
      <trkpt lat="43.71486000" lon="13.03073000">
        <ele>227.00000</ele>
        <time>2010-01-01T02:51:24Z</time>
      </trkpt>
      <trkpt lat="43.71521000" lon="13.03118000">
        <ele>227.00000</ele>
        <time>2010-01-01T02:51:44Z</time>
      </trkpt>
      <trkpt lat="43.71552000" lon="13.03151000">
        <ele>225.00000</ele>
        <time>2010-01-01T02:51:59Z</time>
      </trkpt>
      <trkpt lat="43.71586000" lon="13.03184000">
        <ele>220.00000</ele>
        <time>2010-01-01T02:52:16Z</time>
      </trkpt>
      <trkpt lat="43.71602000" lon="13.03193000">
        <ele>218.00000</ele>
        <time>2010-01-01T02:52:23Z</time>
      </trkpt>
      <trkpt lat="43.71665000" lon="13.03219000">
        <ele>211.00000</ele>
        <time>2010-01-01T02:52:49Z</time>
      </trkpt>
      <trkpt lat="43.71708000" lon="13.03227000">
        <ele>210.00000</ele>
        <time>2010-01-01T02:53:06Z</time>
      </trkpt>
      <trkpt lat="43.71753000" lon="13.03240000">
        <ele>208.00000</ele>
        <time>2010-01-01T02:53:25Z</time>
      </trkpt>
      <trkpt lat="43.71817000" lon="13.03283000">
        <ele>207.00000</ele>
        <time>2010-01-01T02:53:53Z</time>
      </trkpt>
      <trkpt lat="43.71873000" lon="13.03340000">
        <ele>206.00000</ele>
        <time>2010-01-01T02:54:21Z</time>
      </trkpt>
      <trkpt lat="43.71889000" lon="13.03360000">
        <ele>206.00000</ele>
        <time>2010-01-01T02:54:30Z</time>
      </trkpt>
      <trkpt lat="43.71954000" lon="13.03471000">
        <ele>202.00000</ele>
        <time>2010-01-01T02:55:11Z</time>
      </trkpt>
      <trkpt lat="43.71989000" lon="13.03525000">
        <ele>199.00000</ele>
        <time>2010-01-01T02:55:32Z</time>
      </trkpt>
      <trkpt lat="43.72000000" lon="13.03549000">
        <ele>200.00000</ele>
        <time>2010-01-01T02:55:40Z</time>
      </trkpt>
      <trkpt lat="43.72018000" lon="13.03618000">
        <ele>202.00000</ele>
        <time>2010-01-01T02:56:02Z</time>
      </trkpt>
      <trkpt lat="43.72025000" lon="13.03663000">
        <ele>202.00000</ele>
        <time>2010-01-01T02:56:15Z</time>
      </trkpt>
      <trkpt lat="43.72029000" lon="13.03700000">
        <ele>203.00000</ele>
        <time>2010-01-01T02:56:26Z</time>
      </trkpt>
      <trkpt lat="43.72029000" lon="13.03745000">
        <ele>203.00000</ele>
        <time>2010-01-01T02:56:39Z</time>
      </trkpt>
      <trkpt lat="43.72027000" lon="13.03776000">
        <ele>202.00000</ele>
        <time>2010-01-01T02:56:48Z</time>
      </trkpt>
      <trkpt lat="43.72021000" lon="13.03808000">
        <ele>199.00000</ele>
        <time>2010-01-01T02:56:57Z</time>
      </trkpt>
      <trkpt lat="43.72018000" lon="13.03833000">
        <ele>197.00000</ele>
        <time>2010-01-01T02:57:05Z</time>
      </trkpt>
      <trkpt lat="43.72017000" lon="13.03860000">
        <ele>196.00000</ele>
        <time>2010-01-01T02:57:12Z</time>
      </trkpt>
      <trkpt lat="43.72019000" lon="13.03891000">
        <ele>194.00000</ele>
        <time>2010-01-01T02:57:21Z</time>
      </trkpt>
      <trkpt lat="43.72041000" lon="13.04024000">
        <ele>185.00000</ele>
        <time>2010-01-01T02:58:01Z</time>
      </trkpt>
      <trkpt lat="43.72053000" lon="13.04068000">
        <ele>182.00000</ele>
        <time>2010-01-01T02:58:15Z</time>
      </trkpt>
      <trkpt lat="43.72066000" lon="13.04098000">
        <ele>177.00000</ele>
        <time>2010-01-01T02:58:25Z</time>
      </trkpt>
      <trkpt lat="43.72079000" lon="13.04135000">
        <ele>171.00000</ele>
        <time>2010-01-01T02:58:37Z</time>
      </trkpt>
      <trkpt lat="43.72084000" lon="13.04186000">
        <ele>172.00000</ele>
        <time>2010-01-01T02:58:51Z</time>
      </trkpt>
      <trkpt lat="43.72076000" lon="13.04269000">
        <ele>171.00000</ele>
        <time>2010-01-01T02:59:16Z</time>
      </trkpt>
      <trkpt lat="43.72078000" lon="13.04440000">
        <ele>174.00000</ele>
        <time>2010-01-01T03:00:05Z</time>
      </trkpt>
      <trkpt lat="43.72075000" lon="13.04527000">
        <ele>174.00000</ele>
        <time>2010-01-01T03:00:30Z</time>
      </trkpt>
      <trkpt lat="43.72098000" lon="13.04716000">
        <ele>174.00000</ele>
        <time>2010-01-01T03:01:26Z</time>
      </trkpt>
      <trkpt lat="43.72109000" lon="13.04782000">
        <ele>174.00000</ele>
        <time>2010-01-01T03:01:45Z</time>
      </trkpt>
      <trkpt lat="43.72149000" lon="13.04895000">
        <ele>177.00000</ele>
        <time>2010-01-01T03:02:22Z</time>
      </trkpt>
      <trkpt lat="43.72189000" lon="13.05104000">
        <ele>171.00000</ele>
        <time>2010-01-01T03:03:24Z</time>
      </trkpt>
      <trkpt lat="43.72198000" lon="13.05183000">
        <ele>168.00000</ele>
        <time>2010-01-01T03:03:47Z</time>
      </trkpt>
      <trkpt lat="43.72199000" lon="13.05204000">
        <ele>167.00000</ele>
        <time>2010-01-01T03:03:54Z</time>
      </trkpt>
      <trkpt lat="43.72197000" lon="13.05225000">
        <ele>166.00000</ele>
        <time>2010-01-01T03:04:00Z</time>
      </trkpt>
      <trkpt lat="43.72186000" lon="13.05288000">
        <ele>169.00000</ele>
        <time>2010-01-01T03:04:18Z</time>
      </trkpt>
      <trkpt lat="43.72179000" lon="13.05352000">
        <ele>171.00000</ele>
        <time>2010-01-01T03:04:37Z</time>
      </trkpt>
      <trkpt lat="43.72174000" lon="13.05434000">
        <ele>172.00000</ele>
        <time>2010-01-01T03:05:01Z</time>
      </trkpt>
      <trkpt lat="43.72173000" lon="13.05465000">
        <ele>173.00000</ele>
        <time>2010-01-01T03:05:10Z</time>
      </trkpt>
      <trkpt lat="43.72176000" lon="13.05492000">
        <ele>174.00000</ele>
        <time>2010-01-01T03:05:18Z</time>
      </trkpt>
      <trkpt lat="43.72188000" lon="13.05553000">
        <ele>174.00000</ele>
        <time>2010-01-01T03:05:36Z</time>
      </trkpt>
      <trkpt lat="43.72199000" lon="13.05656000">
        <ele>173.00000</ele>
        <time>2010-01-01T03:06:06Z</time>
      </trkpt>
      <trkpt lat="43.72224000" lon="13.05798000">
        <ele>166.00000</ele>
        <time>2010-01-01T03:06:49Z</time>
      </trkpt>
      <trkpt lat="43.72223000" lon="13.05816000">
        <ele>167.00000</ele>
        <time>2010-01-01T03:06:54Z</time>
      </trkpt>
      <trkpt lat="43.72217000" lon="13.05823000">
        <ele>168.00000</ele>
        <time>2010-01-01T03:06:57Z</time>
      </trkpt>
      <trkpt lat="43.72217000" lon="13.05824000">
        <ele>168.00000</ele>
        <time>2010-01-01T03:06:57Z</time>
      </trkpt>
      <trkpt lat="43.72219000" lon="13.05823000">
        <ele>167.00000</ele>
        <time>2010-01-01T03:06:58Z</time>
      </trkpt>
      <trkpt lat="43.72223000" lon="13.05816000">
        <ele>167.00000</ele>
        <time>2010-01-01T03:07:01Z</time>
      </trkpt>
      <trkpt lat="43.72228000" lon="13.05828000">
        <ele>167.00000</ele>
        <time>2010-01-01T03:07:05Z</time>
      </trkpt>
      <trkpt lat="43.72240000" lon="13.05882000">
        <ele>167.00000</ele>
        <time>2010-01-01T03:07:21Z</time>
      </trkpt>
      <trkpt lat="43.72247000" lon="13.05896000">
        <ele>166.00000</ele>
        <time>2010-01-01T03:07:26Z</time>
      </trkpt>
      <trkpt lat="43.72287000" lon="13.05958000">
        <ele>161.00000</ele>
        <time>2010-01-01T03:07:50Z</time>
      </trkpt>
      <trkpt lat="43.72305000" lon="13.05994000">
        <ele>160.00000</ele>
        <time>2010-01-01T03:08:03Z</time>
      </trkpt>
      <trkpt lat="43.72318000" lon="13.06027000">
        <ele>159.00000</ele>
        <time>2010-01-01T03:08:13Z</time>
      </trkpt>
      <trkpt lat="43.72344000" lon="13.06107000">
        <ele>155.00000</ele>
        <time>2010-01-01T03:08:39Z</time>
      </trkpt>
      <trkpt lat="43.72355000" lon="13.06179000">
        <ele>155.00000</ele>
        <time>2010-01-01T03:09:00Z</time>
      </trkpt>
      <trkpt lat="43.72364000" lon="13.06262000">
        <ele>154.00000</ele>
        <time>2010-01-01T03:09:24Z</time>
      </trkpt>
      <trkpt lat="43.72363000" lon="13.06312000">
        <ele>154.00000</ele>
        <time>2010-01-01T03:09:39Z</time>
      </trkpt>
      <trkpt lat="43.72370000" lon="13.06398000">
        <ele>158.00000</ele>
        <time>2010-01-01T03:10:04Z</time>
      </trkpt>
      <trkpt lat="43.72389000" lon="13.06528000">
        <ele>157.00000</ele>
        <time>2010-01-01T03:10:42Z</time>
      </trkpt>
      <trkpt lat="43.72402000" lon="13.06656000">
        <ele>156.00000</ele>
        <time>2010-01-01T03:11:20Z</time>
      </trkpt>
      <trkpt lat="43.72404000" lon="13.06736000">
        <ele>154.00000</ele>
        <time>2010-01-01T03:11:43Z</time>
      </trkpt>
      <trkpt lat="43.72403000" lon="13.06743000">
        <ele>154.00000</ele>
        <time>2010-01-01T03:11:45Z</time>
      </trkpt>
      <trkpt lat="43.72398000" lon="13.06748000">
        <ele>155.00000</ele>
        <time>2010-01-01T03:11:47Z</time>
      </trkpt>
      <trkpt lat="43.72322000" lon="13.06766000">
        <ele>155.00000</ele>
        <time>2010-01-01T03:12:18Z</time>
      </trkpt>
      <trkpt lat="43.72260000" lon="13.06774000">
        <ele>154.00000</ele>
        <time>2010-01-01T03:12:43Z</time>
      </trkpt>
      <trkpt lat="43.72253000" lon="13.06777000">
        <ele>154.00000</ele>
        <time>2010-01-01T03:12:46Z</time>
      </trkpt>
      <trkpt lat="43.72249000" lon="13.06784000">
        <ele>153.00000</ele>
        <time>2010-01-01T03:12:49Z</time>
      </trkpt>
      <trkpt lat="43.72237000" lon="13.06816000">
        <ele>149.00000</ele>
        <time>2010-01-01T03:12:59Z</time>
      </trkpt>
      <trkpt lat="43.72230000" lon="13.06823000">
        <ele>148.00000</ele>
        <time>2010-01-01T03:13:03Z</time>
      </trkpt>
      <trkpt lat="43.72188000" lon="13.06850000">
        <ele>140.00000</ele>
        <time>2010-01-01T03:13:21Z</time>
      </trkpt>
      <trkpt lat="43.72171000" lon="13.06866000">
        <ele>137.00000</ele>
        <time>2010-01-01T03:13:29Z</time>
      </trkpt>
      <trkpt lat="43.72156000" lon="13.06885000">
        <ele>134.00000</ele>
        <time>2010-01-01T03:13:37Z</time>
      </trkpt>
      <trkpt lat="43.72143000" lon="13.06904000">
        <ele>132.00000</ele>
        <time>2010-01-01T03:13:45Z</time>
      </trkpt>
      <trkpt lat="43.72032000" lon="13.07095000">
        <ele>102.00000</ele>
        <time>2010-01-01T03:14:56Z</time>
      </trkpt>
      <trkpt lat="43.72028000" lon="13.07106000">
        <ele>101.00000</ele>
        <time>2010-01-01T03:15:00Z</time>
      </trkpt>
      <trkpt lat="43.72027000" lon="13.07119000">
        <ele>100.00000</ele>
        <time>2010-01-01T03:15:03Z</time>
      </trkpt>
      <trkpt lat="43.72030000" lon="13.07136000">
        <ele>100.00000</ele>
        <time>2010-01-01T03:15:08Z</time>
      </trkpt>
      <trkpt lat="43.72039000" lon="13.07158000">
        <ele>99.000000</ele>
        <time>2010-01-01T03:15:16Z</time>
      </trkpt>
      <trkpt lat="43.72073000" lon="13.07216000">
        <ele>96.000000</ele>
        <time>2010-01-01T03:15:37Z</time>
      </trkpt>
      <trkpt lat="43.72127000" lon="13.07290000">
        <ele>97.000000</ele>
        <time>2010-01-01T03:16:08Z</time>
      </trkpt>
      <trkpt lat="43.72158000" lon="13.07329000">
        <ele>95.000000</ele>
        <time>2010-01-01T03:16:24Z</time>
      </trkpt>
      <trkpt lat="43.72166000" lon="13.07342000">
        <ele>95.000000</ele>
        <time>2010-01-01T03:16:29Z</time>
      </trkpt>
      <trkpt lat="43.72171000" lon="13.07359000">
        <ele>93.000000</ele>
        <time>2010-01-01T03:16:35Z</time>
      </trkpt>
      <trkpt lat="43.72185000" lon="13.07459000">
        <ele>88.000000</ele>
        <time>2010-01-01T03:17:04Z</time>
      </trkpt>
      <trkpt lat="43.72187000" lon="13.07484000">
        <ele>86.000000</ele>
        <time>2010-01-01T03:17:11Z</time>
      </trkpt>
      <trkpt lat="43.72184000" lon="13.07505000">
        <ele>85.000000</ele>
        <time>2010-01-01T03:17:18Z</time>
      </trkpt>
      <trkpt lat="43.72177000" lon="13.07522000">
        <ele>84.000000</ele>
        <time>2010-01-01T03:17:23Z</time>
      </trkpt>
      <trkpt lat="43.72163000" lon="13.07538000">
        <ele>83.000000</ele>
        <time>2010-01-01T03:17:31Z</time>
      </trkpt>
      <trkpt lat="43.72149000" lon="13.07547000">
        <ele>83.000000</ele>
        <time>2010-01-01T03:17:37Z</time>
      </trkpt>
      <trkpt lat="43.72070000" lon="13.07593000">
        <ele>83.000000</ele>
        <time>2010-01-01T03:18:11Z</time>
      </trkpt>
      <trkpt lat="43.72070000" lon="13.07594000">
        <ele>83.000000</ele>
        <time>2010-01-01T03:18:11Z</time>
      </trkpt>
      <trkpt lat="43.72064000" lon="13.07597000">
        <ele>83.000000</ele>
        <time>2010-01-01T03:18:14Z</time>
      </trkpt>
      <trkpt lat="43.72073000" lon="13.07630000">
        <ele>83.000000</ele>
        <time>2010-01-01T03:18:24Z</time>
      </trkpt>
      <trkpt lat="43.72088000" lon="13.07673000">
        <ele>83.000000</ele>
        <time>2010-01-01T03:18:38Z</time>
      </trkpt>
      <trkpt lat="43.72134000" lon="13.07817000">
        <ele>75.000000</ele>
        <time>2010-01-01T03:19:24Z</time>
      </trkpt>
      <trkpt lat="43.72143000" lon="13.07850000">
        <ele>72.000000</ele>
        <time>2010-01-01T03:19:34Z</time>
      </trkpt>
      <trkpt lat="43.72147000" lon="13.07882000">
        <ele>71.000000</ele>
        <time>2010-01-01T03:19:43Z</time>
      </trkpt>
      <trkpt lat="43.72146000" lon="13.07927000">
        <ele>70.000000</ele>
        <time>2010-01-01T03:19:56Z</time>
      </trkpt>
      <trkpt lat="43.72141000" lon="13.07941000">
        <ele>70.000000</ele>
        <time>2010-01-01T03:20:01Z</time>
      </trkpt>
      <trkpt lat="43.72133000" lon="13.07978000">
        <ele>71.000000</ele>
        <time>2010-01-01T03:20:12Z</time>
      </trkpt>
      <trkpt lat="43.72126000" lon="13.08017000">
        <ele>71.000000</ele>
        <time>2010-01-01T03:20:23Z</time>
      </trkpt>
      <trkpt lat="43.72124000" lon="13.08038000">
        <ele>71.000000</ele>
        <time>2010-01-01T03:20:30Z</time>
      </trkpt>
      <trkpt lat="43.72132000" lon="13.08136000">
        <ele>69.000000</ele>
        <time>2010-01-01T03:20:58Z</time>
      </trkpt>
      <trkpt lat="43.72131000" lon="13.08228000">
        <ele>68.000000</ele>
        <time>2010-01-01T03:21:25Z</time>
      </trkpt>
      <trkpt lat="43.72134000" lon="13.08273000">
        <ele>66.000000</ele>
        <time>2010-01-01T03:21:38Z</time>
      </trkpt>
      <trkpt lat="43.72144000" lon="13.08298000">
        <ele>65.000000</ele>
        <time>2010-01-01T03:21:46Z</time>
      </trkpt>
      <trkpt lat="43.72167000" lon="13.08368000">
        <ele>64.000000</ele>
        <time>2010-01-01T03:22:08Z</time>
      </trkpt>
      <trkpt lat="43.72218000" lon="13.08449000">
        <ele>66.000000</ele>
        <time>2010-01-01T03:22:39Z</time>
      </trkpt>
      <trkpt lat="43.72232000" lon="13.08468000">
        <ele>65.000000</ele>
        <time>2010-01-01T03:22:47Z</time>
      </trkpt>
      <trkpt lat="43.72276000" lon="13.08547000">
        <ele>64.000000</ele>
        <time>2010-01-01T03:23:16Z</time>
      </trkpt>
      <trkpt lat="43.72317000" lon="13.08633000">
        <ele>64.000000</ele>
        <time>2010-01-01T03:23:46Z</time>
      </trkpt>
      <trkpt lat="43.72345000" lon="13.08686000">
        <ele>66.000000</ele>
        <time>2010-01-01T03:24:05Z</time>
      </trkpt>
      <trkpt lat="43.72356000" lon="13.08676000">
        <ele>66.000000</ele>
        <time>2010-01-01T03:24:10Z</time>
      </trkpt>
      <trkpt lat="43.72399000" lon="13.08636000">
        <ele>64.000000</ele>
        <time>2010-01-01T03:24:31Z</time>
      </trkpt>
      <trkpt lat="43.72534000" lon="13.08430000">
        <ele>59.000000</ele>
        <time>2010-01-01T03:25:51Z</time>
      </trkpt>
      <trkpt lat="43.72540000" lon="13.08415000">
        <ele>57.000000</ele>
        <time>2010-01-01T03:25:56Z</time>
      </trkpt>
      <trkpt lat="43.72572000" lon="13.08501000">
        <ele>62.000000</ele>
        <time>2010-01-01T03:26:24Z</time>
      </trkpt>
      <trkpt lat="43.72598000" lon="13.08577000">
        <ele>62.000000</ele>
        <time>2010-01-01T03:26:49Z</time>
      </trkpt>
      <trkpt lat="43.72597000" lon="13.08647000">
        <ele>59.000000</ele>
        <time>2010-01-01T03:27:09Z</time>
      </trkpt>
      <trkpt lat="43.72595000" lon="13.08667000">
        <ele>57.000000</ele>
        <time>2010-01-01T03:27:15Z</time>
      </trkpt>
      <trkpt lat="43.72587000" lon="13.08693000">
        <ele>56.000000</ele>
        <time>2010-01-01T03:27:23Z</time>
      </trkpt>
      <trkpt lat="43.72587000" lon="13.08712000">
        <ele>57.000000</ele>
        <time>2010-01-01T03:27:28Z</time>
      </trkpt>
      <trkpt lat="43.72600000" lon="13.08736000">
        <ele>56.000000</ele>
        <time>2010-01-01T03:27:37Z</time>
      </trkpt>
      <trkpt lat="43.72695000" lon="13.08858000">
        <ele>49.000000</ele>
        <time>2010-01-01T03:28:29Z</time>
      </trkpt>
      <trkpt lat="43.72709000" lon="13.08886000">
        <ele>48.000000</ele>
        <time>2010-01-01T03:28:39Z</time>
      </trkpt>
      <trkpt lat="43.72717000" lon="13.08940000">
        <ele>49.000000</ele>
        <time>2010-01-01T03:28:55Z</time>
      </trkpt>
      <trkpt lat="43.72717000" lon="13.08968000">
        <ele>51.000000</ele>
        <time>2010-01-01T03:29:03Z</time>
      </trkpt>
      <trkpt lat="43.72715000" lon="13.09040000">
        <ele>48.000000</ele>
        <time>2010-01-01T03:29:24Z</time>
      </trkpt>
      <trkpt lat="43.72712000" lon="13.09060000">
        <ele>47.000000</ele>
        <time>2010-01-01T03:29:30Z</time>
      </trkpt>
      <trkpt lat="43.72692000" lon="13.09133000">
        <ele>47.000000</ele>
        <time>2010-01-01T03:29:52Z</time>
      </trkpt>
      <trkpt lat="43.72685000" lon="13.09166000">
        <ele>47.000000</ele>
        <time>2010-01-01T03:30:02Z</time>
      </trkpt>
      <trkpt lat="43.72683000" lon="13.09188000">
        <ele>48.000000</ele>
        <time>2010-01-01T03:30:09Z</time>
      </trkpt>
      <trkpt lat="43.72690000" lon="13.09297000">
        <ele>50.000000</ele>
        <time>2010-01-01T03:30:40Z</time>
      </trkpt>
      <trkpt lat="43.72691000" lon="13.09336000">
        <ele>54.000000</ele>
        <time>2010-01-01T03:30:51Z</time>
      </trkpt>
      <trkpt lat="43.72785000" lon="13.09577000">
        <ele>40.000000</ele>
        <time>2010-01-01T03:32:11Z</time>
      </trkpt>
      <trkpt lat="43.72785000" lon="13.09576000">
        <ele>40.000000</ele>
        <time>2010-01-01T03:32:11Z</time>
      </trkpt>
      <trkpt lat="43.72788000" lon="13.09585000">
        <ele>40.000000</ele>
        <time>2010-01-01T03:32:14Z</time>
      </trkpt>
      <trkpt lat="43.72790000" lon="13.09603000">
        <ele>40.000000</ele>
        <time>2010-01-01T03:32:19Z</time>
      </trkpt>
      <trkpt lat="43.72789000" lon="13.09619000">
        <ele>41.000000</ele>
        <time>2010-01-01T03:32:24Z</time>
      </trkpt>
      <trkpt lat="43.72780000" lon="13.09650000">
        <ele>41.000000</ele>
        <time>2010-01-01T03:32:33Z</time>
      </trkpt>
      <trkpt lat="43.72835000" lon="13.09709000">
        <ele>38.000000</ele>
        <time>2010-01-01T03:33:01Z</time>
      </trkpt>
      <trkpt lat="43.72927000" lon="13.09791000">
        <ele>37.000000</ele>
        <time>2010-01-01T03:33:45Z</time>
      </trkpt>
      <trkpt lat="43.73108000" lon="13.10011000">
        <ele>38.000000</ele>
        <time>2010-01-01T03:35:22Z</time>
      </trkpt>
      <trkpt lat="43.73107000" lon="13.10011000">
        <ele>38.000000</ele>
        <time>2010-01-01T03:35:22Z</time>
      </trkpt>
      <trkpt lat="43.73114000" lon="13.10019000">
        <ele>39.000000</ele>
        <time>2010-01-01T03:35:26Z</time>
      </trkpt>
      <trkpt lat="43.73023000" lon="13.10178000">
        <ele>37.000000</ele>
        <time>2010-01-01T03:36:24Z</time>
      </trkpt>
      <trkpt lat="43.73039000" lon="13.10217000">
        <ele>37.000000</ele>
        <time>2010-01-01T03:36:37Z</time>
      </trkpt>
      <trkpt lat="43.72991000" lon="13.10293000">
        <ele>37.000000</ele>
        <time>2010-01-01T03:37:06Z</time>
      </trkpt>
      <trkpt lat="43.72986000" lon="13.10303000">
        <ele>37.000000</ele>
        <time>2010-01-01T03:37:10Z</time>
      </trkpt>
      <trkpt lat="43.72987000" lon="13.10314000">
        <ele>37.000000</ele>
        <time>2010-01-01T03:37:13Z</time>
      </trkpt>
      <trkpt lat="43.73029000" lon="13.10361000">
        <ele>36.000000</ele>
        <time>2010-01-01T03:37:35Z</time>
      </trkpt>
      <trkpt lat="43.73034000" lon="13.10368000">
        <ele>36.000000</ele>
        <time>2010-01-01T03:37:38Z</time>
      </trkpt>
      <trkpt lat="43.73038000" lon="13.10388000">
        <ele>35.000000</ele>
        <time>2010-01-01T03:37:44Z</time>
      </trkpt>
      <trkpt lat="43.73040000" lon="13.10428000">
        <ele>36.000000</ele>
        <time>2010-01-01T03:37:55Z</time>
      </trkpt>
      <trkpt lat="43.73049000" lon="13.10486000">
        <ele>36.000000</ele>
        <time>2010-01-01T03:38:12Z</time>
      </trkpt>
      <trkpt lat="43.73039000" lon="13.10534000">
        <ele>36.000000</ele>
        <time>2010-01-01T03:38:27Z</time>
      </trkpt>
      <trkpt lat="43.73037000" lon="13.10575000">
        <ele>36.000000</ele>
        <time>2010-01-01T03:38:39Z</time>
      </trkpt>
      <trkpt lat="43.73035000" lon="13.10584000">
        <ele>36.000000</ele>
        <time>2010-01-01T03:38:41Z</time>
      </trkpt>
      <trkpt lat="43.73030000" lon="13.10594000">
        <ele>36.000000</ele>
        <time>2010-01-01T03:38:45Z</time>
      </trkpt>
      <trkpt lat="43.73018000" lon="13.10615000">
        <ele>37.000000</ele>
        <time>2010-01-01T03:38:53Z</time>
      </trkpt>
      <trkpt lat="43.72998000" lon="13.10659000">
        <ele>37.000000</ele>
        <time>2010-01-01T03:39:08Z</time>
      </trkpt>
      <trkpt lat="43.73005000" lon="13.10697000">
        <ele>35.000000</ele>
        <time>2010-01-01T03:39:19Z</time>
      </trkpt>
      <trkpt lat="43.73007000" lon="13.10727000">
        <ele>36.000000</ele>
        <time>2010-01-01T03:39:28Z</time>
      </trkpt>
      <trkpt lat="43.73011000" lon="13.10822000">
        <ele>37.000000</ele>
        <time>2010-01-01T03:39:55Z</time>
      </trkpt>
      <trkpt lat="43.73024000" lon="13.10885000">
        <ele>37.000000</ele>
        <time>2010-01-01T03:40:14Z</time>
      </trkpt>
      <trkpt lat="43.73023000" lon="13.10934000">
        <ele>36.000000</ele>
        <time>2010-01-01T03:40:28Z</time>
      </trkpt>
      <trkpt lat="43.73019000" lon="13.10973000">
        <ele>35.000000</ele>
        <time>2010-01-01T03:40:40Z</time>
      </trkpt>
      <trkpt lat="43.73013000" lon="13.11016000">
        <ele>33.000000</ele>
        <time>2010-01-01T03:40:52Z</time>
      </trkpt>
      <trkpt lat="43.73009000" lon="13.11067000">
        <ele>33.000000</ele>
        <time>2010-01-01T03:41:07Z</time>
      </trkpt>
      <trkpt lat="43.73009000" lon="13.11080000">
        <ele>33.000000</ele>
        <time>2010-01-01T03:41:11Z</time>
      </trkpt>
      <trkpt lat="43.73014000" lon="13.11098000">
        <ele>33.000000</ele>
        <time>2010-01-01T03:41:17Z</time>
      </trkpt>
      <trkpt lat="43.73018000" lon="13.11104000">
        <ele>32.000000</ele>
        <time>2010-01-01T03:41:19Z</time>
      </trkpt>
      <trkpt lat="43.73018000" lon="13.11110000">
        <ele>32.000000</ele>
        <time>2010-01-01T03:41:21Z</time>
      </trkpt>
      <trkpt lat="43.73011000" lon="13.11120000">
        <ele>32.000000</ele>
        <time>2010-01-01T03:41:25Z</time>
      </trkpt>
      <trkpt lat="43.72965000" lon="13.11140000">
        <ele>33.000000</ele>
        <time>2010-01-01T03:41:44Z</time>
      </trkpt>
      <trkpt lat="43.72957000" lon="13.11148000">
        <ele>32.000000</ele>
        <time>2010-01-01T03:41:48Z</time>
      </trkpt>
      <trkpt lat="43.72953000" lon="13.11157000">
        <ele>32.000000</ele>
        <time>2010-01-01T03:41:51Z</time>
      </trkpt>
      <trkpt lat="43.72953000" lon="13.11169000">
        <ele>32.000000</ele>
        <time>2010-01-01T03:41:55Z</time>
      </trkpt>
      <trkpt lat="43.72958000" lon="13.11180000">
        <ele>32.000000</ele>
        <time>2010-01-01T03:41:58Z</time>
      </trkpt>
      <trkpt lat="43.73017000" lon="13.11272000">
        <ele>33.000000</ele>
        <time>2010-01-01T03:42:34Z</time>
      </trkpt>
      <trkpt lat="43.73048000" lon="13.11324000">
        <ele>31.000000</ele>
        <time>2010-01-01T03:42:53Z</time>
      </trkpt>
      <trkpt lat="43.73087000" lon="13.11283000">
        <ele>32.000000</ele>
        <time>2010-01-01T03:43:13Z</time>
      </trkpt>
      <trkpt lat="43.73104000" lon="13.11258000">
        <ele>33.000000</ele>
        <time>2010-01-01T03:43:23Z</time>
      </trkpt>
      <trkpt lat="43.73128000" lon="13.11190000">
        <ele>31.000000</ele>
        <time>2010-01-01T03:43:45Z</time>
      </trkpt>
      <trkpt lat="43.73138000" lon="13.11183000">
        <ele>31.000000</ele>
        <time>2010-01-01T03:43:49Z</time>
      </trkpt>
      <trkpt lat="43.73155000" lon="13.11171000">
        <ele>32.000000</ele>
        <time>2010-01-01T03:43:57Z</time>
      </trkpt>
      <trkpt lat="43.73205000" lon="13.11149000">
        <ele>33.000000</ele>
        <time>2010-01-01T03:44:18Z</time>
      </trkpt>
      <trkpt lat="43.73252000" lon="13.11094000">
        <ele>32.000000</ele>
        <time>2010-01-01T03:44:43Z</time>
      </trkpt>
      <trkpt lat="43.73262000" lon="13.11088000">
        <ele>32.000000</ele>
        <time>2010-01-01T03:44:47Z</time>
      </trkpt>
      <trkpt lat="43.73362000" lon="13.11042000">
        <ele>35.000000</ele>
        <time>2010-01-01T03:45:29Z</time>
      </trkpt>
      <trkpt lat="43.73450000" lon="13.11005000">
        <ele>35.000000</ele>
        <time>2010-01-01T03:46:06Z</time>
      </trkpt>
      <trkpt lat="43.73465000" lon="13.10987000">
        <ele>35.000000</ele>
        <time>2010-01-01T03:46:14Z</time>
      </trkpt>
      <trkpt lat="43.73470000" lon="13.11026000">
        <ele>35.000000</ele>
        <time>2010-01-01T03:46:25Z</time>
      </trkpt>
      <trkpt lat="43.73461000" lon="13.11134000">
        <ele>34.000000</ele>
        <time>2010-01-01T03:46:57Z</time>
      </trkpt>
      <trkpt lat="43.73462000" lon="13.11167000">
        <ele>35.000000</ele>
        <time>2010-01-01T03:47:06Z</time>
      </trkpt>
      <trkpt lat="43.73470000" lon="13.11218000">
        <ele>33.000000</ele>
        <time>2010-01-01T03:47:21Z</time>
      </trkpt>
      <trkpt lat="43.73504000" lon="13.11324000">
        <ele>34.000000</ele>
        <time>2010-01-01T03:47:55Z</time>
      </trkpt>
      <trkpt lat="43.73547000" lon="13.11443000">
        <ele>33.000000</ele>
        <time>2010-01-01T03:48:33Z</time>
      </trkpt>
      <trkpt lat="43.73584000" lon="13.11553000">
        <ele>27.000000</ele>
        <time>2010-01-01T03:49:09Z</time>
      </trkpt>
      <trkpt lat="43.73584000" lon="13.11574000">
        <ele>28.000000</ele>
        <time>2010-01-01T03:49:15Z</time>
      </trkpt>
      <trkpt lat="43.73525000" lon="13.11768000">
        <ele>27.000000</ele>
        <time>2010-01-01T03:50:16Z</time>
      </trkpt>
      <trkpt lat="43.73442000" lon="13.12107000">
        <ele>28.000000</ele>
        <time>2010-01-01T03:51:59Z</time>
      </trkpt>
      <trkpt lat="43.73409000" lon="13.12214000">
        <ele>25.000000</ele>
        <time>2010-01-01T03:52:33Z</time>
      </trkpt>
      <trkpt lat="43.73395000" lon="13.12256000">
        <ele>23.000000</ele>
        <time>2010-01-01T03:52:46Z</time>
      </trkpt>
      <trkpt lat="43.73378000" lon="13.12306000">
        <ele>22.000000</ele>
        <time>2010-01-01T03:53:02Z</time>
      </trkpt>
      <trkpt lat="43.73368000" lon="13.12343000">
        <ele>22.000000</ele>
        <time>2010-01-01T03:53:14Z</time>
      </trkpt>
      <trkpt lat="43.73381000" lon="13.12499000">
        <ele>22.000000</ele>
        <time>2010-01-01T03:53:59Z</time>
      </trkpt>
      <trkpt lat="43.73401000" lon="13.12674000">
        <ele>26.000000</ele>
        <time>2010-01-01T03:54:50Z</time>
      </trkpt>
      <trkpt lat="43.73407000" lon="13.12753000">
        <ele>26.000000</ele>
        <time>2010-01-01T03:55:13Z</time>
      </trkpt>
      <trkpt lat="43.73412000" lon="13.12778000">
        <ele>26.000000</ele>
        <time>2010-01-01T03:55:21Z</time>
      </trkpt>
      <trkpt lat="43.73426000" lon="13.12794000">
        <ele>27.000000</ele>
        <time>2010-01-01T03:55:28Z</time>
      </trkpt>
      <trkpt lat="43.73471000" lon="13.12834000">
        <ele>26.000000</ele>
        <time>2010-01-01T03:55:49Z</time>
      </trkpt>
      <trkpt lat="43.73542000" lon="13.12890000">
        <ele>24.000000</ele>
        <time>2010-01-01T03:56:22Z</time>
      </trkpt>
      <trkpt lat="43.73613000" lon="13.12940000">
        <ele>21.000000</ele>
        <time>2010-01-01T03:56:54Z</time>
      </trkpt>
      <trkpt lat="43.73694000" lon="13.12993000">
        <ele>21.000000</ele>
        <time>2010-01-01T03:57:30Z</time>
      </trkpt>
      <trkpt lat="43.73817000" lon="13.13076000">
        <ele>21.000000</ele>
        <time>2010-01-01T03:58:25Z</time>
      </trkpt>
      <trkpt lat="43.73885000" lon="13.13126000">
        <ele>19.000000</ele>
        <time>2010-01-01T03:58:55Z</time>
      </trkpt>
      <trkpt lat="43.73912000" lon="13.13150000">
        <ele>18.000000</ele>
        <time>2010-01-01T03:59:08Z</time>
      </trkpt>
      <trkpt lat="43.73926000" lon="13.13174000">
        <ele>19.000000</ele>
        <time>2010-01-01T03:59:17Z</time>
      </trkpt>
      <trkpt lat="43.73948000" lon="13.13237000">
        <ele>21.000000</ele>
        <time>2010-01-01T03:59:37Z</time>
      </trkpt>
      <trkpt lat="43.73976000" lon="13.13294000">
        <ele>20.000000</ele>
        <time>2010-01-01T03:59:57Z</time>
      </trkpt>
      <trkpt lat="43.74028000" lon="13.13385000">
        <ele>20.000000</ele>
        <time>2010-01-01T04:00:31Z</time>
      </trkpt>
      <trkpt lat="43.74056000" lon="13.13443000">
        <ele>21.000000</ele>
        <time>2010-01-01T04:00:51Z</time>
      </trkpt>
      <trkpt lat="43.74070000" lon="13.13471000">
        <ele>21.000000</ele>
        <time>2010-01-01T04:01:01Z</time>
      </trkpt>
      <trkpt lat="43.74110000" lon="13.13514000">
        <ele>21.000000</ele>
        <time>2010-01-01T04:01:21Z</time>
      </trkpt>
      <trkpt lat="43.74149000" lon="13.13544000">
        <ele>20.000000</ele>
        <time>2010-01-01T04:01:39Z</time>
      </trkpt>
      <trkpt lat="43.74178000" lon="13.13572000">
        <ele>20.000000</ele>
        <time>2010-01-01T04:01:53Z</time>
      </trkpt>
      <trkpt lat="43.74228000" lon="13.13643000">
        <ele>19.000000</ele>
        <time>2010-01-01T04:02:22Z</time>
      </trkpt>
      <trkpt lat="43.74260000" lon="13.13707000">
        <ele>18.000000</ele>
        <time>2010-01-01T04:02:44Z</time>
      </trkpt>
      <trkpt lat="43.74260000" lon="13.13706000">
        <ele>18.000000</ele>
        <time>2010-01-01T04:02:45Z</time>
      </trkpt>
      <trkpt lat="43.74271000" lon="13.13737000">
        <ele>16.000000</ele>
        <time>2010-01-01T04:02:55Z</time>
      </trkpt>
      <trkpt lat="43.74283000" lon="13.13759000">
        <ele>16.000000</ele>
        <time>2010-01-01T04:03:03Z</time>
      </trkpt>
      <trkpt lat="43.74291000" lon="13.13764000">
        <ele>17.000000</ele>
        <time>2010-01-01T04:03:06Z</time>
      </trkpt>
      <trkpt lat="43.74315000" lon="13.13915000">
        <ele>18.000000</ele>
        <time>2010-01-01T04:03:51Z</time>
      </trkpt>
      <trkpt lat="43.74335000" lon="13.14018000">
        <ele>17.000000</ele>
        <time>2010-01-01T04:04:22Z</time>
      </trkpt>
      <trkpt lat="43.74376000" lon="13.14210000">
        <ele>17.000000</ele>
        <time>2010-01-01T04:05:20Z</time>
      </trkpt>
      <trkpt lat="43.74388000" lon="13.14308000">
        <ele>17.000000</ele>
        <time>2010-01-01T04:05:48Z</time>
      </trkpt>
      <trkpt lat="43.74410000" lon="13.14549000">
        <ele>19.000000</ele>
        <time>2010-01-01T04:06:59Z</time>
      </trkpt>
      <trkpt lat="43.74421000" lon="13.14604000">
        <ele>18.000000</ele>
        <time>2010-01-01T04:07:15Z</time>
      </trkpt>
      <trkpt lat="43.74452000" lon="13.14750000">
        <ele>16.000000</ele>
        <time>2010-01-01T04:07:59Z</time>
      </trkpt>
      <trkpt lat="43.74495000" lon="13.14887000">
        <ele>16.000000</ele>
        <time>2010-01-01T04:08:42Z</time>
      </trkpt>
      <trkpt lat="43.74575000" lon="13.15119000">
        <ele>11.000000</ele>
        <time>2010-01-01T04:09:57Z</time>
      </trkpt>
      <trkpt lat="43.74611000" lon="13.15337000">
        <ele>17.000000</ele>
        <time>2010-01-01T04:11:01Z</time>
      </trkpt>
      <trkpt lat="43.74654000" lon="13.15513000">
        <ele>12.000000</ele>
        <time>2010-01-01T04:11:55Z</time>
      </trkpt>
      <trkpt lat="43.74682000" lon="13.15607000">
        <ele>13.000000</ele>
        <time>2010-01-01T04:12:24Z</time>
      </trkpt>
      <trkpt lat="43.74692000" lon="13.15635000">
        <ele>13.000000</ele>
        <time>2010-01-01T04:12:33Z</time>
      </trkpt>
      <trkpt lat="43.74708000" lon="13.15663000">
        <ele>13.000000</ele>
        <time>2010-01-01T04:12:44Z</time>
      </trkpt>
      <trkpt lat="43.74791000" lon="13.15796000">
        <ele>11.000000</ele>
        <time>2010-01-01T04:13:35Z</time>
      </trkpt>
      <trkpt lat="43.74804000" lon="13.15823000">
        <ele>12.000000</ele>
        <time>2010-01-01T04:13:44Z</time>
      </trkpt>
      <trkpt lat="43.74804000" lon="13.15822000">
        <ele>12.000000</ele>
        <time>2010-01-01T04:13:44Z</time>
      </trkpt>
      <trkpt lat="43.74819000" lon="13.15859000">
        <ele>11.000000</ele>
        <time>2010-01-01T04:13:57Z</time>
      </trkpt>
      <trkpt lat="43.74823000" lon="13.15889000">
        <ele>12.000000</ele>
        <time>2010-01-01T04:14:05Z</time>
      </trkpt>
      <trkpt lat="43.74825000" lon="13.15920000">
        <ele>14.000000</ele>
        <time>2010-01-01T04:14:14Z</time>
      </trkpt>
      <trkpt lat="43.74820000" lon="13.15985000">
        <ele>11.000000</ele>
        <time>2010-01-01T04:14:33Z</time>
      </trkpt>
      <trkpt lat="43.74822000" lon="13.16014000">
        <ele>10.000000</ele>
        <time>2010-01-01T04:14:42Z</time>
      </trkpt>
      <trkpt lat="43.74834000" lon="13.16106000">
        <ele>13.000000</ele>
        <time>2010-01-01T04:15:09Z</time>
      </trkpt>
      <trkpt lat="43.74843000" lon="13.16153000">
        <ele>9.0000000</ele>
        <time>2010-01-01T04:15:23Z</time>
      </trkpt>
      <trkpt lat="43.74875000" lon="13.16350000">
        <ele>6.0000000</ele>
        <time>2010-01-01T04:16:21Z</time>
      </trkpt>
      <trkpt lat="43.74891000" lon="13.16419000">
        <ele>9.0000000</ele>
        <time>2010-01-01T04:16:42Z</time>
      </trkpt>
      <trkpt lat="43.74921000" lon="13.16514000">
        <ele>8.0000000</ele>
        <time>2010-01-01T04:17:12Z</time>
      </trkpt>
      <trkpt lat="43.74927000" lon="13.16550000">
        <ele>6.0000000</ele>
        <time>2010-01-01T04:17:23Z</time>
      </trkpt>
      <trkpt lat="43.74936000" lon="13.16640000">
        <ele>5.0000000</ele>
        <time>2010-01-01T04:17:49Z</time>
      </trkpt>
      <trkpt lat="43.74949000" lon="13.16697000">
        <ele>7.0000000</ele>
        <time>2010-01-01T04:18:06Z</time>
      </trkpt>
      <trkpt lat="43.74955000" lon="13.16710000">
        <ele>7.0000000</ele>
        <time>2010-01-01T04:18:11Z</time>
      </trkpt>
      <trkpt lat="43.74966000" lon="13.16744000">
        <ele>5.0000000</ele>
        <time>2010-01-01T04:18:22Z</time>
      </trkpt>
      <trkpt lat="43.74968000" lon="13.16758000">
        <ele>4.0000000</ele>
        <time>2010-01-01T04:18:26Z</time>
      </trkpt>
      <trkpt lat="43.74965000" lon="13.16781000">
        <ele>4.0000000</ele>
        <time>2010-01-01T04:18:32Z</time>
      </trkpt>
      <trkpt lat="43.74961000" lon="13.16796000">
        <ele>4.0000000</ele>
        <time>2010-01-01T04:18:37Z</time>
      </trkpt>
      <trkpt lat="43.74917000" lon="13.16863000">
        <ele>8.0000000</ele>
        <time>2010-01-01T04:19:03Z</time>
      </trkpt>
      <trkpt lat="43.74794000" lon="13.17055000">
        <ele>4.0000000</ele>
        <time>2010-01-01T04:20:18Z</time>
      </trkpt>
      <trkpt lat="43.74715000" lon="13.17186000">
        <ele>3.0000000</ele>
        <time>2010-01-01T04:21:07Z</time>
      </trkpt>
      <trkpt lat="43.74675000" lon="13.17260000">
        <ele>4.0000000</ele>
        <time>2010-01-01T04:21:34Z</time>
      </trkpt>
      <trkpt lat="43.74621000" lon="13.17354000">
        <ele>3.0000000</ele>
        <time>2010-01-01T04:22:08Z</time>
      </trkpt>
      <trkpt lat="43.74610000" lon="13.17368000">
        <ele>2.0000000</ele>
        <time>2010-01-01T04:22:14Z</time>
      </trkpt>
      <trkpt lat="43.74599000" lon="13.17377000">
        <ele>2.0000000</ele>
        <time>2010-01-01T04:22:19Z</time>
      </trkpt>
      <trkpt lat="43.74587000" lon="13.17375000">
        <ele>1.0000000</ele>
        <time>2010-01-01T04:22:24Z</time>
      </trkpt>
      <trkpt lat="43.74580000" lon="13.17378000">
        <ele>1.0000000</ele>
        <time>2010-01-01T04:22:27Z</time>
      </trkpt>
      <trkpt lat="43.74571000" lon="13.17389000">
        <ele>1.0000000</ele>
        <time>2010-01-01T04:22:32Z</time>
      </trkpt>
      <trkpt lat="43.74566000" lon="13.17405000">
        <ele>1.0000000</ele>
        <time>2010-01-01T04:22:37Z</time>
      </trkpt>
      <trkpt lat="43.74568000" lon="13.17420000">
        <ele>2.0000000</ele>
        <time>2010-01-01T04:22:41Z</time>
      </trkpt>
      <trkpt lat="43.74564000" lon="13.17438000">
        <ele>2.0000000</ele>
        <time>2010-01-01T04:22:47Z</time>
      </trkpt>
      <trkpt lat="43.74558000" lon="13.17464000">
        <ele>2.0000000</ele>
        <time>2010-01-01T04:22:55Z</time>
      </trkpt>
      <trkpt lat="43.74548000" lon="13.17487000">
        <ele>3.0000000</ele>
        <time>2010-01-01T04:23:03Z</time>
      </trkpt>
      <trkpt lat="43.74379000" lon="13.17784000">
        <ele>2.0000000</ele>
        <time>2010-01-01T04:24:52Z</time>
      </trkpt>
      <trkpt lat="43.74291000" lon="13.17938000">
        <ele>4.0000000</ele>
        <time>2010-01-01T04:25:49Z</time>
      </trkpt>
      <trkpt lat="43.74285000" lon="13.17944000">
        <ele>5.0000000</ele>
        <time>2010-01-01T04:25:52Z</time>
      </trkpt>
      <trkpt lat="43.74200000" lon="13.18095000">
        <ele>0.0000000</ele>
        <time>2010-01-01T04:26:47Z</time>
      </trkpt>
      <trkpt lat="43.74189000" lon="13.18108000">
        <ele>-1.000000</ele>
        <time>2010-01-01T04:26:53Z</time>
      </trkpt>
      <trkpt lat="43.74176000" lon="13.18113000">
        <ele>-1.000000</ele>
        <time>2010-01-01T04:26:58Z</time>
      </trkpt>
      <trkpt lat="43.74172000" lon="13.18118000">
        <ele>-1.000000</ele>
        <time>2010-01-01T04:27:00Z</time>
      </trkpt>
      <trkpt lat="43.74165000" lon="13.18154000">
        <ele>-1.000000</ele>
        <time>2010-01-01T04:27:11Z</time>
      </trkpt>
      <trkpt lat="43.74161000" lon="13.18167000">
        <ele>0.0000000</ele>
        <time>2010-01-01T04:27:15Z</time>
      </trkpt>
      <trkpt lat="43.74169000" lon="13.18157000">
        <ele>-1.000000</ele>
        <time>2010-01-01T04:27:20Z</time>
      </trkpt>
      <trkpt lat="43.74181000" lon="13.18146000">
        <ele>0.0000000</ele>
        <time>2010-01-01T04:27:25Z</time>
      </trkpt>
      <trkpt lat="43.74185000" lon="13.18146000">
        <ele>0.0000000</ele>
        <time>2010-01-01T04:27:27Z</time>
      </trkpt>
      <trkpt lat="43.74191000" lon="13.18141000">
        <ele>0.0000000</ele>
        <time>2010-01-01T04:27:30Z</time>
      </trkpt>
      <trkpt lat="43.74195000" lon="13.18131000">
        <ele>0.0000000</ele>
        <time>2010-01-01T04:27:33Z</time>
      </trkpt>
      <trkpt lat="43.74196000" lon="13.18117000">
        <ele>0.0000000</ele>
        <time>2010-01-01T04:27:37Z</time>
      </trkpt>
      <trkpt lat="43.74202000" lon="13.18100000">
        <ele>0.0000000</ele>
        <time>2010-01-01T04:27:43Z</time>
      </trkpt>
      <trkpt lat="43.74265000" lon="13.17988000">
        <ele>4.0000000</ele>
        <time>2010-01-01T04:28:24Z</time>
      </trkpt>
      <trkpt lat="43.74270000" lon="13.17993000">
        <ele>3.0000000</ele>
        <time>2010-01-01T04:28:26Z</time>
      </trkpt>
      <trkpt lat="43.74326000" lon="13.18078000">
        <ele>2.0000000</ele>
        <time>2010-01-01T04:28:59Z</time>
      </trkpt>
      <trkpt lat="43.74326000" lon="13.18077000">
        <ele>2.0000000</ele>
        <time>2010-01-01T04:29:00Z</time>
      </trkpt>
      <trkpt lat="43.74362000" lon="13.18131000">
        <ele>3.0000000</ele>
        <time>2010-01-01T04:29:21Z</time>
      </trkpt>
      <trkpt lat="43.74366000" lon="13.18143000">
        <ele>3.0000000</ele>
        <time>2010-01-01T04:29:25Z</time>
      </trkpt>
      <trkpt lat="43.74362000" lon="13.18153000">
        <ele>3.0000000</ele>
        <time>2010-01-01T04:29:28Z</time>
      </trkpt>
      <trkpt lat="43.74238000" lon="13.18319000">
        <ele>3.0000000</ele>
        <time>2010-01-01T04:30:37Z</time>
      </trkpt>
      <trkpt lat="43.74228000" lon="13.18337000">
        <ele>3.0000000</ele>
        <time>2010-01-01T04:30:44Z</time>
      </trkpt>
      <trkpt lat="43.74205000" lon="13.18418000">
        <ele>0.0000000</ele>
        <time>2010-01-01T04:31:09Z</time>
      </trkpt>
      <trkpt lat="43.74189000" lon="13.18444000">
        <ele>-1.000000</ele>
        <time>2010-01-01T04:31:19Z</time>
      </trkpt>
      <trkpt lat="43.74159000" lon="13.18483000">
        <ele>-2.000000</ele>
        <time>2010-01-01T04:31:35Z</time>
      </trkpt>
      <trkpt lat="43.74077000" lon="13.18580000">
        <ele>0.0000000</ele>
        <time>2010-01-01T04:32:18Z</time>
      </trkpt>
      <trkpt lat="43.73968000" lon="13.18728000">
        <ele>-1.000000</ele>
        <time>2010-01-01T04:33:19Z</time>
      </trkpt>
      <trkpt lat="43.73837000" lon="13.18916000">
        <ele>3.0000000</ele>
        <time>2010-01-01T04:34:35Z</time>
      </trkpt>
      <trkpt lat="43.73730000" lon="13.19064000">
        <ele>3.0000000</ele>
        <time>2010-01-01T04:35:36Z</time>
      </trkpt>
      <trkpt lat="43.73556000" lon="13.19314000">
        <ele>2.0000000</ele>
        <time>2010-01-01T04:37:16Z</time>
      </trkpt>
      <trkpt lat="43.73453000" lon="13.19470000">
        <ele>4.0000000</ele>
        <time>2010-01-01T04:38:17Z</time>
      </trkpt>
      <trkpt lat="43.73298000" lon="13.19700000">
        <ele>5.0000000</ele>
        <time>2010-01-01T04:39:48Z</time>
      </trkpt>
      <trkpt lat="43.73114000" lon="13.19967000">
        <ele>2.0000000</ele>
        <time>2010-01-01T04:41:35Z</time>
      </trkpt>
      <trkpt lat="43.72864000" lon="13.20362000">
        <ele>2.0000000</ele>
        <time>2010-01-01T04:44:07Z</time>
      </trkpt>
      <trkpt lat="43.72719000" lon="13.20591000">
        <ele>1.0000000</ele>
        <time>2010-01-01T04:45:35Z</time>
      </trkpt>
      <trkpt lat="43.72640000" lon="13.20719000">
        <ele>1.0000000</ele>
        <time>2010-01-01T04:46:23Z</time>
      </trkpt>
      <trkpt lat="43.72547000" lon="13.20874000">
        <ele>1.0000000</ele>
        <time>2010-01-01T04:47:22Z</time>
      </trkpt>
      <trkpt lat="43.72493000" lon="13.20969000">
        <ele>2.0000000</ele>
        <time>2010-01-01T04:47:57Z</time>
      </trkpt>
      <trkpt lat="43.72359000" lon="13.21242000">
        <ele>2.0000000</ele>
        <time>2010-01-01T04:49:32Z</time>
      </trkpt>
      <trkpt lat="43.72152000" lon="13.21676000">
        <ele>1.0000000</ele>
        <time>2010-01-01T04:52:03Z</time>
      </trkpt>
      <trkpt lat="43.72104000" lon="13.21777000">
        <ele>3.0000000</ele>
        <time>2010-01-01T04:52:38Z</time>
      </trkpt>
      <trkpt lat="43.72071000" lon="13.21842000">
        <ele>4.0000000</ele>
        <time>2010-01-01T04:53:00Z</time>
      </trkpt>
      <trkpt lat="43.72066000" lon="13.21850000">
        <ele>4.0000000</ele>
        <time>2010-01-01T04:53:04Z</time>
      </trkpt>
      <trkpt lat="43.72056000" lon="13.21853000">
        <ele>3.0000000</ele>
        <time>2010-01-01T04:53:08Z</time>
      </trkpt>
      <trkpt lat="43.72044000" lon="13.21860000">
        <ele>2.0000000</ele>
        <time>2010-01-01T04:53:13Z</time>
      </trkpt>
      <trkpt lat="43.72034000" lon="13.21876000">
        <ele>2.0000000</ele>
        <time>2010-01-01T04:53:19Z</time>
      </trkpt>
      <trkpt lat="43.72017000" lon="13.21910000">
        <ele>5.0000000</ele>
        <time>2010-01-01T04:53:31Z</time>
      </trkpt>
      <trkpt lat="43.71978000" lon="13.21929000">
        <ele>6.0000000</ele>
        <time>2010-01-01T04:53:47Z</time>
      </trkpt>
    </trkseg>
  </trk>
</gpx>

